Wetterdaten: Montag, 16.02.2026
Datum Zeit Temp. Aussen Temp. o. S. Temp +5cm Feuchte Auss Luftdruck Regen Sonnenschein Regendauer Solar Windböen Empfang
16.02.2026 00:00 0,6 °C 0,0 °C -3,9 °C 97 % 996,6 hPa 0,0 l/m² 0 min 0 min 0 W/m² 16,1 km/h (3 Bft) 93,62 %
16.02.2026 00:02 0,6 °C 0,0 °C -3,9 °C 97 % 996,6 hPa 0,0 l/m² 0 min 0 min 0 W/m² 16,1 km/h (3 Bft) 88,10 %
16.02.2026 00:04 0,6 °C 0,0 °C -3,9 °C 97 % 996,6 hPa 0,0 l/m² 0 min 0 min 0 W/m² 16,1 km/h (3 Bft) 91,84 %
16.02.2026 00:07 0,6 °C 0,0 °C -3,9 °C 97 % 996,6 hPa 0,0 l/m² 0 min 0 min 0 W/m² 12,9 km/h (3 Bft) 89,71 %
16.02.2026 00:08 0,6 °C 0,0 °C -3,9 °C 97 % 996,6 hPa 0,0 l/m² 0 min 0 min 0 W/m² 6,4 km/h (2 Bft) 100,00 %
16.02.2026 00:10 0,6 °C 0,0 °C -3,9 °C 97 % 996,6 hPa 0,0 l/m² 0 min 0 min 0 W/m² 16,1 km/h (3 Bft) 97,92 %
16.02.2026 00:12 0,6 °C 0,0 °C -3,9 °C 97 % 996,6 hPa 0,2 l/m² 0 min 0 min 0 W/m² 16,1 km/h (3 Bft) 97,87 %
16.02.2026 00:14 0,6 °C 0,0 °C -3,9 °C 97 % 996,6 hPa 0,0 l/m² 0 min 0 min 0 W/m² 12,9 km/h (3 Bft) 95,74 %
16.02.2026 00:16 0,6 °C 0,0 °C -3,9 °C 97 % 996,6 hPa 0,0 l/m² 0 min 0 min 0 W/m² 12,9 km/h (3 Bft) 91,49 %
16.02.2026 00:18 0,6 °C 0,0 °C -3,9 °C 97 % 996,6 hPa 0,0 l/m² 0 min 0 min 0 W/m² 9,7 km/h (2 Bft) 97,87 %
16.02.2026 00:20 0,6 °C 0,0 °C -3,9 °C 97 % 996,6 hPa 0,0 l/m² 0 min 0 min 0 W/m² 6,4 km/h (2 Bft) 93,62 %
16.02.2026 00:22 0,6 °C 0,0 °C -3,9 °C 97 % 996,6 hPa 0,0 l/m² 0 min 0 min 0 W/m² 6,4 km/h (2 Bft) 97,87 %
16.02.2026 00:24 0,6 °C 0,0 °C -3,9 °C 97 % 996,5 hPa 0,0 l/m² 0 min 0 min 0 W/m² 9,7 km/h (2 Bft) 95,74 %
16.02.2026 00:26 0,6 °C 0,0 °C -3,9 °C 97 % 996,5 hPa 0,0 l/m² 0 min 0 min 0 W/m² 9,7 km/h (2 Bft) 97,87 %
16.02.2026 00:28 0,6 °C 0,0 °C -3,9 °C 97 % 996,5 hPa 0,0 l/m² 0 min 0 min 0 W/m² 12,9 km/h (3 Bft) 97,87 %
16.02.2026 00:30 0,6 °C 0,0 °C -3,9 °C 97 % 996,5 hPa 0,2 l/m² 0 min 0 min 0 W/m² 12,9 km/h (3 Bft) 97,83 %
16.02.2026 00:32 0,6 °C 0,0 °C -3,9 °C 97 % 996,4 hPa 0,0 l/m² 0 min 2 min 0 W/m² 12,9 km/h (3 Bft) 93,62 %
16.02.2026 00:34 0,6 °C 0,0 °C -3,9 °C 97 % 996,4 hPa 0,0 l/m² 0 min 2 min 0 W/m² 12,9 km/h (3 Bft) 97,14 %
16.02.2026 00:36 0,6 °C 0,0 °C -3,9 °C 97 % 996,4 hPa 0,0 l/m² 0 min 0 min 0 W/m² 19,3 km/h (3 Bft) 100,00 %
16.02.2026 00:38 0,6 °C 0,0 °C -3,9 °C 97 % 996,4 hPa 0,0 l/m² 0 min 2 min 0 W/m² 12,9 km/h (3 Bft) 97,14 %
16.02.2026 00:40 0,6 °C 0,0 °C -3,9 °C 97 % 996,4 hPa 0,0 l/m² 0 min 0 min 0 W/m² 19,3 km/h (3 Bft) 97,87 %
16.02.2026 00:42 0,6 °C 0,0 °C -3,9 °C 97 % 996,3 hPa 0,0 l/m² 0 min 2 min 0 W/m² 16,1 km/h (3 Bft) 100,00 %
16.02.2026 00:44 0,6 °C 0,0 °C -3,9 °C 97 % 996,3 hPa 0,0 l/m² 0 min 0 min 0 W/m² 16,1 km/h (3 Bft) 100,00 %
16.02.2026 00:46 0,5 °C 0,0 °C -3,9 °C 97 % 996,2 hPa 0,0 l/m² 0 min 0 min 0 W/m² 16,1 km/h (3 Bft) 100,00 %
16.02.2026 00:48 0,5 °C -0,6 °C -3,9 °C 97 % 996,1 hPa 0,0 l/m² 0 min 2 min 0 W/m² 12,9 km/h (3 Bft) 100,00 %
16.02.2026 00:50 0,5 °C -0,6 °C -3,9 °C 97 % 996,1 hPa 0,0 l/m² 0 min 2 min 0 W/m² 19,3 km/h (3 Bft) 95,74 %
16.02.2026 00:52 0,4 °C -0,6 °C -3,9 °C 97 % 996,0 hPa 0,0 l/m² 0 min 2 min 0 W/m² 16,1 km/h (3 Bft) 97,87 %
16.02.2026 00:54 0,4 °C -0,6 °C -3,9 °C 97 % 996,0 hPa 0,0 l/m² 0 min 2 min 0 W/m² 16,1 km/h (3 Bft) 100,00 %
16.02.2026 00:56 0,4 °C -0,6 °C -4,4 °C 97 % 996,0 hPa 0,0 l/m² 0 min 2 min 0 W/m² 12,9 km/h (3 Bft) 100,00 %
16.02.2026 00:58 0,4 °C -0,6 °C -3,9 °C 97 % 995,9 hPa 0,0 l/m² 0 min 0 min 0 W/m² 19,3 km/h (3 Bft) 100,00 %
16.02.2026 01:00 0,4 °C -0,6 °C -3,9 °C 97 % 995,9 hPa 0,0 l/m² 0 min 0 min 0 W/m² 12,9 km/h (3 Bft) 100,00 %
16.02.2026 01:02 0,4 °C -0,6 °C -3,9 °C 97 % 995,9 hPa 0,0 l/m² 0 min 2 min 0 W/m² 16,1 km/h (3 Bft) 100,00 %
16.02.2026 01:04 0,4 °C -0,6 °C -3,9 °C 97 % 995,8 hPa 0,0 l/m² 0 min 2 min 0 W/m² 19,3 km/h (3 Bft) 97,92 %
16.02.2026 01:06 0,4 °C 0,0 °C -3,9 °C 97 % 995,7 hPa 0,0 l/m² 0 min 2 min 0 W/m² 16,1 km/h (3 Bft) 63,16 %
16.02.2026 01:08 0,4 °C 0,0 °C -3,9 °C 97 % 995,7 hPa 0,2 l/m² 0 min 2 min 0 W/m² 16,1 km/h (3 Bft) 100,00 %
16.02.2026 01:10 0,4 °C 0,0 °C -3,9 °C 97 % 995,8 hPa 0,0 l/m² 0 min 2 min 0 W/m² 16,1 km/h (3 Bft) 97,87 %
16.02.2026 01:12 0,4 °C 0,0 °C -3,9 °C 97 % 995,7 hPa 0,0 l/m² 0 min 2 min 0 W/m² 16,1 km/h (3 Bft) 100,00 %
16.02.2026 01:14 0,4 °C 0,0 °C -3,9 °C 97 % 995,8 hPa 0,0 l/m² 0 min 0 min 0 W/m² 16,1 km/h (3 Bft) 100,00 %
16.02.2026 01:16 0,4 °C 0,0 °C -3,9 °C 97 % 995,7 hPa 0,0 l/m² 0 min 0 min 0 W/m² 12,9 km/h (3 Bft) 97,87 %
16.02.2026 01:18 0,4 °C 0,0 °C -3,9 °C 97 % 995,7 hPa 0,2 l/m² 0 min 0 min 0 W/m² 12,9 km/h (3 Bft) 100,00 %
16.02.2026 01:20 0,4 °C 0,0 °C -3,9 °C 98 % 995,7 hPa 0,0 l/m² 0 min 0 min 0 W/m² 16,1 km/h (3 Bft) 97,87 %
16.02.2026 01:22 0,4 °C 0,0 °C -3,9 °C 98 % 995,6 hPa 0,0 l/m² 0 min 0 min 0 W/m² 16,1 km/h (3 Bft) 100,00 %
16.02.2026 01:24 0,4 °C 0,0 °C -3,9 °C 98 % 995,6 hPa 0,0 l/m² 0 min 0 min 0 W/m² 16,1 km/h (3 Bft) 95,74 %
16.02.2026 01:26 0,4 °C 0,0 °C -3,9 °C 98 % 995,5 hPa 0,0 l/m² 0 min 0 min 0 W/m² 12,9 km/h (3 Bft) 97,87 %
16.02.2026 01:28 0,5 °C 0,0 °C -3,9 °C 98 % 995,5 hPa 0,0 l/m² 0 min 0 min 0 W/m² 16,1 km/h (3 Bft) 95,74 %
16.02.2026 01:30 0,5 °C 0,0 °C -3,9 °C 98 % 995,6 hPa 0,0 l/m² 0 min 0 min 0 W/m² 12,9 km/h (3 Bft) 97,87 %
16.02.2026 01:32 0,5 °C 0,0 °C -3,9 °C 98 % 995,5 hPa 0,0 l/m² 0 min 0 min 0 W/m² 16,1 km/h (3 Bft) 95,74 %
16.02.2026 01:34 0,5 °C 0,0 °C -3,9 °C 98 % 995,5 hPa 0,0 l/m² 0 min 0 min 0 W/m² 12,9 km/h (3 Bft) 97,87 %
16.02.2026 01:36 0,5 °C 0,0 °C -3,9 °C 98 % 995,5 hPa 0,0 l/m² 0 min 0 min 0 W/m² 12,9 km/h (3 Bft) 95,74 %
16.02.2026 01:38 0,6 °C 0,0 °C -3,9 °C 98 % 995,5 hPa 0,0 l/m² 0 min 0 min 0 W/m² 12,9 km/h (3 Bft) 97,87 %
16.02.2026 01:40 0,6 °C 0,0 °C -3,9 °C 98 % 995,5 hPa 0,2 l/m² 0 min 0 min 0 W/m² 12,9 km/h (3 Bft) 97,87 %
16.02.2026 01:42 0,6 °C 0,0 °C -3,9 °C 98 % 995,5 hPa 0,0 l/m² 0 min 0 min 0 W/m² 19,3 km/h (3 Bft) 97,87 %
16.02.2026 01:44 0,6 °C 0,0 °C -3,9 °C 98 % 995,5 hPa 0,0 l/m² 0 min 0 min 0 W/m² 12,9 km/h (3 Bft) 97,87 %
16.02.2026 01:46 0,6 °C 0,0 °C -3,9 °C 98 % 995,4 hPa 0,0 l/m² 0 min 0 min 0 W/m² 19,3 km/h (3 Bft) 97,87 %
16.02.2026 01:48 0,6 °C 0,0 °C -3,9 °C 98 % 995,4 hPa 0,0 l/m² 0 min 0 min 0 W/m² 12,9 km/h (3 Bft) 97,83 %
16.02.2026 01:50 0,6 °C 0,0 °C -3,3 °C 98 % 995,4 hPa 0,0 l/m² 0 min 0 min 0 W/m² 12,9 km/h (3 Bft) 93,62 %
16.02.2026 01:52 0,6 °C 0,0 °C -3,3 °C 98 % 995,4 hPa 0,0 l/m² 0 min 0 min 0 W/m² 12,9 km/h (3 Bft) 95,74 %
16.02.2026 01:54 0,6 °C 0,0 °C -3,3 °C 98 % 995,4 hPa 0,0 l/m² 0 min 0 min 0 W/m² 12,9 km/h (3 Bft) 93,62 %
16.02.2026 01:56 0,6 °C 0,0 °C -3,3 °C 98 % 995,3 hPa 0,0 l/m² 0 min 0 min 0 W/m² 6,4 km/h (2 Bft) 100,00 %
16.02.2026 01:58 0,6 °C 0,0 °C -3,3 °C 98 % 995,3 hPa 0,2 l/m² 0 min 0 min 0 W/m² 12,9 km/h (3 Bft) 97,87 %
16.02.2026 02:00 0,6 °C 0,0 °C -3,3 °C 98 % 995,3 hPa 0,0 l/m² 0 min 0 min 0 W/m² 12,9 km/h (3 Bft) 100,00 %
16.02.2026 02:02 0,6 °C 0,0 °C -3,3 °C 98 % 995,2 hPa 0,0 l/m² 0 min 0 min 0 W/m² 16,1 km/h (3 Bft) 97,87 %
16.02.2026 02:04 0,6 °C 0,0 °C -3,3 °C 98 % 995,1 hPa 0,0 l/m² 0 min 0 min 0 W/m² 19,3 km/h (3 Bft) 100,00 %
16.02.2026 02:06 0,6 °C 0,0 °C -3,3 °C 98 % 995,1 hPa 0,0 l/m² 0 min 0 min 0 W/m² 9,7 km/h (2 Bft) 95,74 %
16.02.2026 02:08 0,6 °C 0,0 °C -3,3 °C 98 % 995,1 hPa 0,0 l/m² 0 min 0 min 0 W/m² 12,9 km/h (3 Bft) 100,00 %
16.02.2026 02:10 0,6 °C 0,0 °C -3,3 °C 98 % 995,1 hPa 0,0 l/m² 0 min 0 min 0 W/m² 12,9 km/h (3 Bft) 100,00 %
16.02.2026 02:12 0,6 °C 0,0 °C -3,3 °C 98 % 995,1 hPa 0,0 l/m² 0 min 0 min 0 W/m² 12,9 km/h (3 Bft) 100,00 %
16.02.2026 02:14 0,6 °C 0,0 °C -3,3 °C 98 % 995,1 hPa 0,0 l/m² 0 min 0 min 0 W/m² 16,1 km/h (3 Bft) 100,00 %
16.02.2026 02:16 0,6 °C 0,0 °C -3,3 °C 98 % 995,1 hPa 0,0 l/m² 0 min 0 min 0 W/m² 9,7 km/h (2 Bft) 97,87 %
16.02.2026 02:18 0,6 °C 0,0 °C -3,3 °C 98 % 995,2 hPa 0,0 l/m² 0 min 0 min 0 W/m² 12,9 km/h (3 Bft) 100,00 %
16.02.2026 02:20 0,6 °C 0,0 °C -3,3 °C 98 % 995,1 hPa 0,0 l/m² 0 min 0 min 0 W/m² 12,9 km/h (3 Bft) 97,87 %
16.02.2026 02:22 0,6 °C 0,0 °C -3,3 °C 98 % 995,1 hPa 0,2 l/m² 0 min 0 min 0 W/m² 12,9 km/h (3 Bft) 97,87 %
16.02.2026 02:24 0,6 °C 0,0 °C -3,3 °C 98 % 995,1 hPa 0,0 l/m² 0 min 0 min 0 W/m² 16,1 km/h (3 Bft) 95,74 %
16.02.2026 02:26 0,6 °C 0,0 °C -3,3 °C 98 % 995,1 hPa 0,0 l/m² 0 min 0 min 0 W/m² 16,1 km/h (3 Bft) 93,62 %
16.02.2026 02:28 0,6 °C 0,0 °C -3,3 °C 98 % 995,0 hPa 0,0 l/m² 0 min 0 min 0 W/m² 12,9 km/h (3 Bft) 95,74 %
16.02.2026 02:30 0,6 °C 0,0 °C -3,3 °C 98 % 995,1 hPa 0,0 l/m² 0 min 0 min 0 W/m² 16,1 km/h (3 Bft) 95,74 %
16.02.2026 02:32 0,6 °C 0,0 °C -3,3 °C 98 % 995,0 hPa 0,0 l/m² 0 min 0 min 0 W/m² 12,9 km/h (3 Bft) 93,48 %
16.02.2026 02:34 0,7 °C 0,0 °C -3,3 °C 98 % 995,0 hPa 0,0 l/m² 0 min 0 min 0 W/m² 9,7 km/h (2 Bft) 91,49 %
16.02.2026 02:39 0,7 °C 0,0 °C -3,3 °C 98 % 995,0 hPa 0,2 l/m² 0 min 0 min 0 W/m² 16,1 km/h (3 Bft) 95,77 %
16.02.2026 02:40 0,7 °C 0,0 °C -3,3 °C 98 % 995,0 hPa 0,0 l/m² 0 min 0 min 0 W/m² 12,9 km/h (3 Bft) 91,30 %
16.02.2026 02:42 0,7 °C 0,0 °C -3,3 °C 98 % 994,9 hPa 0,0 l/m² 0 min 0 min 0 W/m² 12,9 km/h (3 Bft) 97,87 %
16.02.2026 02:44 0,8 °C 0,0 °C -3,3 °C 98 % 994,8 hPa 0,0 l/m² 0 min 0 min 0 W/m² 6,4 km/h (2 Bft) 93,62 %
16.02.2026 02:46 0,8 °C 0,0 °C -3,3 °C 98 % 994,9 hPa 0,0 l/m² 0 min 0 min 0 W/m² 16,1 km/h (3 Bft) 95,74 %
16.02.2026 02:48 0,8 °C 0,0 °C -3,3 °C 98 % 994,8 hPa 0,0 l/m² 0 min 0 min 0 W/m² 16,1 km/h (3 Bft) 93,62 %
16.02.2026 02:50 0,8 °C 0,0 °C -3,3 °C 98 % 994,7 hPa 0,0 l/m² 0 min 0 min 0 W/m² 16,1 km/h (3 Bft) 95,74 %
16.02.2026 02:52 0,8 °C 0,0 °C -3,3 °C 98 % 994,7 hPa 0,0 l/m² 0 min 0 min 0 W/m² 6,4 km/h (2 Bft) 95,74 %
16.02.2026 02:54 0,8 °C 0,0 °C -3,3 °C 98 % 994,7 hPa 0,0 l/m² 0 min 0 min 0 W/m² 12,9 km/h (3 Bft) 95,83 %
16.02.2026 02:56 0,8 °C 0,0 °C -3,3 °C 98 % 994,7 hPa 0,0 l/m² 0 min 0 min 0 W/m² 12,9 km/h (3 Bft) 95,74 %
16.02.2026 02:58 0,8 °C 0,0 °C -3,3 °C 98 % 994,6 hPa 0,2 l/m² 0 min 0 min 0 W/m² 12,9 km/h (3 Bft) 97,87 %
16.02.2026 03:00 0,8 °C 0,0 °C -3,3 °C 98 % 994,7 hPa 0,0 l/m² 0 min 0 min 0 W/m² 12,9 km/h (3 Bft) 95,74 %
16.02.2026 03:02 0,8 °C 0,0 °C -3,3 °C 98 % 994,8 hPa 0,0 l/m² 0 min 0 min 0 W/m² 12,9 km/h (3 Bft) 97,87 %
16.02.2026 03:04 0,8 °C 0,0 °C -3,3 °C 98 % 994,7 hPa 0,0 l/m² 0 min 0 min 0 W/m² 9,7 km/h (2 Bft) 97,87 %
16.02.2026 03:06 0,9 °C 0,0 °C -3,3 °C 98 % 994,6 hPa 0,0 l/m² 0 min 0 min 0 W/m² 12,9 km/h (3 Bft) 95,74 %
16.02.2026 03:08 0,9 °C 0,0 °C -3,3 °C 98 % 994,6 hPa 0,0 l/m² 0 min 0 min 0 W/m² 6,4 km/h (2 Bft) 95,74 %
16.02.2026 03:10 0,9 °C 0,6 °C -3,3 °C 98 % 994,6 hPa 0,0 l/m² 0 min 0 min 0 W/m² 9,7 km/h (2 Bft) 95,74 %
16.02.2026 03:12 0,9 °C 0,6 °C -3,3 °C 98 % 994,6 hPa 0,0 l/m² 0 min 0 min 0 W/m² 9,7 km/h (2 Bft) 93,48 %
16.02.2026 03:14 0,9 °C 0,6 °C -3,3 °C 98 % 994,5 hPa 0,2 l/m² 0 min 0 min 0 W/m² 12,9 km/h (3 Bft) 93,62 %
16.02.2026 03:16 0,9 °C 0,6 °C -2,8 °C 98 % 994,5 hPa 0,0 l/m² 0 min 0 min 0 W/m² 9,7 km/h (2 Bft) 97,87 %
16.02.2026 03:18 0,9 °C 0,6 °C -2,8 °C 98 % 994,6 hPa 0,0 l/m² 0 min 0 min 0 W/m² 9,7 km/h (2 Bft) 97,87 %
16.02.2026 03:20 0,9 °C 0,6 °C -2,8 °C 98 % 994,6 hPa 0,0 l/m² 0 min 0 min 0 W/m² 6,4 km/h (2 Bft) 97,87 %
16.02.2026 03:22 0,9 °C 0,6 °C -2,8 °C 98 % 994,6 hPa 0,0 l/m² 0 min 0 min 0 W/m² 6,4 km/h (2 Bft) 95,74 %
16.02.2026 03:24 0,9 °C 0,6 °C -2,8 °C 98 % 994,6 hPa 0,0 l/m² 0 min 2 min 0 W/m² 9,7 km/h (2 Bft) 95,74 %
16.02.2026 03:26 1,0 °C 0,6 °C -2,8 °C 98 % 994,6 hPa 0,0 l/m² 0 min 2 min 0 W/m² 6,4 km/h (2 Bft) 97,87 %
16.02.2026 03:28 1,0 °C 0,6 °C -2,8 °C 98 % 994,6 hPa 0,0 l/m² 0 min 2 min 0 W/m² 6,4 km/h (2 Bft) 97,87 %
16.02.2026 03:30 1,0 °C 0,6 °C -2,8 °C 98 % 994,5 hPa 0,2 l/m² 0 min 2 min 0 W/m² 6,4 km/h (2 Bft) 95,74 %
16.02.2026 03:32 1,1 °C 0,6 °C -2,8 °C 98 % 994,5 hPa 0,2 l/m² 0 min 2 min 0 W/m² 12,9 km/h (3 Bft) 95,74 %
16.02.2026 03:34 1,1 °C 0,6 °C -2,8 °C 98 % 994,4 hPa 0,0 l/m² 0 min 0 min 0 W/m² 16,1 km/h (3 Bft) 97,87 %
16.02.2026 03:36 1,1 °C 0,6 °C -2,8 °C 98 % 994,4 hPa 0,0 l/m² 0 min 0 min 0 W/m² 6,4 km/h (2 Bft) 97,87 %
16.02.2026 03:38 1,2 °C 0,6 °C -2,8 °C 98 % 994,4 hPa 0,2 l/m² 0 min 0 min 0 W/m² 12,9 km/h (3 Bft) 100,00 %
16.02.2026 03:40 1,2 °C 0,6 °C -2,8 °C 98 % 994,3 hPa 0,0 l/m² 0 min 0 min 0 W/m² 9,7 km/h (2 Bft) 93,62 %
16.02.2026 03:42 1,2 °C 0,6 °C -2,8 °C 98 % 994,3 hPa 0,0 l/m² 0 min 0 min 0 W/m² 9,7 km/h (2 Bft) 97,87 %
16.02.2026 03:44 1,2 °C 0,6 °C -2,8 °C 98 % 994,3 hPa 0,0 l/m² 0 min 0 min 0 W/m² 6,4 km/h (2 Bft) 100,00 %
16.02.2026 03:46 1,2 °C 0,6 °C -2,8 °C 98 % 994,3 hPa 0,0 l/m² 0 min 0 min 0 W/m² 6,4 km/h (2 Bft) 100,00 %
16.02.2026 03:51 1,3 °C 0,6 °C -2,8 °C 98 % 994,3 hPa 0,2 l/m² 0 min 0 min 0 W/m² 12,9 km/h (3 Bft) 98,53 %
16.02.2026 03:52 1,3 °C 1,1 °C -2,8 °C 98 % 994,3 hPa 0,0 l/m² 0 min 0 min 0 W/m² 6,4 km/h (2 Bft) 95,83 %
16.02.2026 03:54 1,4 °C 1,1 °C -2,8 °C 98 % 994,3 hPa 0,0 l/m² 0 min 0 min 0 W/m² 6,4 km/h (2 Bft) 100,00 %
16.02.2026 03:56 1,4 °C 1,1 °C -2,8 °C 98 % 994,3 hPa 0,0 l/m² 0 min 0 min 0 W/m² 12,9 km/h (3 Bft) 100,00 %
16.02.2026 03:58 1,4 °C 1,1 °C -2,2 °C 98 % 994,3 hPa 0,0 l/m² 0 min 2 min 0 W/m² 12,9 km/h (3 Bft) 100,00 %
16.02.2026 04:00 1,5 °C 1,1 °C -2,2 °C 98 % 994,3 hPa 0,0 l/m² 0 min 2 min 0 W/m² 9,7 km/h (2 Bft) 100,00 %
16.02.2026 04:05 1,6 °C 1,1 °C -2,2 °C 98 % 994,3 hPa 0,2 l/m² 0 min 5 min 0 W/m² 12,9 km/h (3 Bft) 96,77 %
16.02.2026 04:06 1,6 °C 1,1 °C -2,2 °C 98 % 994,3 hPa 0,0 l/m² 0 min 1 min 0 W/m² 0,0 km/h (0 Bft) 96,77 %
16.02.2026 04:08 1,7 °C 1,1 °C -2,2 °C 98 % 994,3 hPa 0,0 l/m² 0 min 2 min 0 W/m² 6,4 km/h (2 Bft) 80,60 %
16.02.2026 04:10 1,7 °C 1,1 °C -2,2 °C 98 % 994,3 hPa 0,0 l/m² 0 min 2 min 0 W/m² 0,0 km/h (0 Bft) 67,74 %
16.02.2026 04:12 1,7 °C 1,1 °C -2,2 °C 98 % 994,3 hPa 0,2 l/m² 0 min 2 min 0 W/m² 6,4 km/h (2 Bft) 100,00 %
16.02.2026 04:14 1,8 °C 1,1 °C -2,2 °C 98 % 994,3 hPa 0,0 l/m² 0 min 2 min 0 W/m² 3,2 km/h (1 Bft) 100,00 %
16.02.2026 04:16 1,8 °C 1,1 °C -2,2 °C 98 % 994,3 hPa 0,0 l/m² 0 min 2 min 0 W/m² 3,2 km/h (1 Bft) 96,67 %
16.02.2026 04:18 1,8 °C 1,1 °C -2,2 °C 98 % 994,3 hPa 0,0 l/m² 0 min 0 min 0 W/m² 3,2 km/h (1 Bft) 100,00 %
16.02.2026 04:20 1,9 °C 1,7 °C -2,2 °C 98 % 994,3 hPa 0,0 l/m² 0 min 0 min 0 W/m² 9,7 km/h (2 Bft) 100,00 %
16.02.2026 04:22 1,9 °C 1,7 °C -2,2 °C 98 % 994,3 hPa 0,0 l/m² 0 min 0 min 0 W/m² 3,2 km/h (1 Bft) 97,87 %
16.02.2026 04:24 2,0 °C 1,7 °C -2,2 °C 98 % 994,3 hPa 0,0 l/m² 0 min 0 min 0 W/m² 3,2 km/h (1 Bft) 97,83 %
16.02.2026 04:26 2,1 °C 1,1 °C -2,2 °C 98 % 994,3 hPa 0,0 l/m² 0 min 0 min 0 W/m² 3,2 km/h (1 Bft) 97,87 %
16.02.2026 04:28 2,1 °C 1,1 °C -2,2 °C 98 % 994,4 hPa 0,0 l/m² 0 min 0 min 0 W/m² 3,2 km/h (1 Bft) 100,00 %
16.02.2026 04:30 2,1 °C 1,1 °C -2,2 °C 99 % 994,4 hPa 0,0 l/m² 0 min 0 min 0 W/m² 3,2 km/h (1 Bft) 100,00 %
16.02.2026 04:32 2,2 °C 1,7 °C -2,2 °C 99 % 994,4 hPa 0,2 l/m² 0 min 0 min 0 W/m² 9,7 km/h (2 Bft) 100,00 %
16.02.2026 04:34 2,2 °C 1,7 °C -2,2 °C 99 % 994,4 hPa 0,0 l/m² 0 min 0 min 0 W/m² 6,4 km/h (2 Bft) 97,87 %
16.02.2026 04:36 2,3 °C 1,7 °C -2,2 °C 98 % 994,5 hPa 0,0 l/m² 0 min 0 min 0 W/m² 16,1 km/h (3 Bft) 97,87 %
16.02.2026 04:38 2,3 °C 1,7 °C -1,7 °C 98 % 994,4 hPa 0,0 l/m² 0 min 0 min 0 W/m² 6,4 km/h (2 Bft) 97,87 %
16.02.2026 04:40 2,4 °C 1,7 °C -1,7 °C 98 % 994,4 hPa 0,0 l/m² 0 min 0 min 0 W/m² 6,4 km/h (2 Bft) 97,87 %
16.02.2026 04:42 2,4 °C 2,2 °C -1,7 °C 99 % 994,5 hPa 0,0 l/m² 0 min 0 min 0 W/m² 12,9 km/h (3 Bft) 97,87 %
16.02.2026 04:44 2,5 °C 2,2 °C -1,7 °C 99 % 994,5 hPa 0,0 l/m² 0 min 0 min 0 W/m² 9,7 km/h (2 Bft) 95,74 %
16.02.2026 04:46 2,6 °C 2,2 °C -1,7 °C 99 % 994,5 hPa 0,2 l/m² 0 min 0 min 0 W/m² 6,4 km/h (2 Bft) 97,83 %
16.02.2026 04:48 2,6 °C 2,2 °C -1,7 °C 99 % 994,5 hPa 0,0 l/m² 0 min 0 min 0 W/m² 6,4 km/h (2 Bft) 95,74 %
16.02.2026 04:50 2,6 °C 2,2 °C -1,7 °C 99 % 994,6 hPa 0,0 l/m² 0 min 0 min 0 W/m² 12,9 km/h (3 Bft) 97,87 %
16.02.2026 04:52 2,7 °C 2,2 °C -1,7 °C 99 % 994,6 hPa 0,0 l/m² 0 min 0 min 0 W/m² 12,9 km/h (3 Bft) 95,74 %
16.02.2026 04:54 2,7 °C 2,2 °C -1,7 °C 99 % 994,6 hPa 0,0 l/m² 0 min 0 min 0 W/m² 19,3 km/h (3 Bft) 97,87 %
16.02.2026 04:56 2,7 °C 2,2 °C -1,7 °C 99 % 994,7 hPa 0,0 l/m² 0 min 0 min 0 W/m² 6,4 km/h (2 Bft) 97,87 %
16.02.2026 04:58 2,8 °C 2,2 °C -1,7 °C 99 % 994,7 hPa 0,0 l/m² 0 min 0 min 0 W/m² 12,9 km/h (3 Bft) 97,87 %
16.02.2026 05:00 2,8 °C 2,2 °C -1,7 °C 99 % 994,7 hPa 0,2 l/m² 0 min 0 min 0 W/m² 19,3 km/h (3 Bft) 97,87 %
16.02.2026 05:02 2,9 °C 2,2 °C -1,1 °C 99 % 994,8 hPa 0,0 l/m² 0 min 0 min 0 W/m² 16,1 km/h (3 Bft) 97,87 %
16.02.2026 05:04 3,0 °C 2,2 °C -1,1 °C 99 % 994,7 hPa 0,0 l/m² 0 min 2 min 0 W/m² 6,4 km/h (2 Bft) 95,12 %
16.02.2026 05:06 3,0 °C 2,2 °C -1,1 °C 99 % 994,7 hPa 0,0 l/m² 0 min 2 min 0 W/m² 12,9 km/h (3 Bft) 94,34 %
16.02.2026 05:08 3,1 °C 2,2 °C -1,1 °C 99 % 994,7 hPa 0,2 l/m² 0 min 2 min 0 W/m² 12,9 km/h (3 Bft) 93,62 %
16.02.2026 05:10 3,1 °C 2,8 °C -1,1 °C 99 % 994,7 hPa 0,0 l/m² 0 min 2 min 0 W/m² 9,7 km/h (2 Bft) 95,74 %
16.02.2026 05:12 3,2 °C 2,8 °C -1,1 °C 99 % 994,8 hPa 0,0 l/m² 0 min 2 min 0 W/m² 16,1 km/h (3 Bft) 94,44 %
16.02.2026 05:14 3,2 °C 2,8 °C -1,1 °C 99 % 994,9 hPa 0,0 l/m² 0 min 2 min 0 W/m² 16,1 km/h (3 Bft) 95,65 %
16.02.2026 05:16 3,3 °C 2,8 °C -1,1 °C 99 % 994,9 hPa 0,2 l/m² 0 min 2 min 0 W/m² 12,9 km/h (3 Bft) 97,87 %
16.02.2026 05:18 3,3 °C 2,8 °C -1,1 °C 99 % 994,9 hPa 0,0 l/m² 0 min 0 min 0 W/m² 12,9 km/h (3 Bft) 97,87 %
16.02.2026 05:20 3,3 °C 2,8 °C -1,1 °C 99 % 994,9 hPa 0,0 l/m² 0 min 0 min 0 W/m² 12,9 km/h (3 Bft) 100,00 %
16.02.2026 05:22 3,3 °C 2,8 °C -1,1 °C 99 % 995,0 hPa 0,0 l/m² 0 min 0 min 0 W/m² 6,4 km/h (2 Bft) 97,87 %
16.02.2026 05:24 3,4 °C 2,8 °C -1,1 °C 99 % 994,9 hPa 0,2 l/m² 0 min 0 min 0 W/m² 9,7 km/h (2 Bft) 93,62 %
16.02.2026 05:26 3,4 °C 2,8 °C -1,1 °C 99 % 994,9 hPa 0,0 l/m² 0 min 0 min 0 W/m² 6,4 km/h (2 Bft) 93,62 %
16.02.2026 05:28 3,4 °C 2,8 °C -1,1 °C 99 % 994,9 hPa 0,0 l/m² 0 min 0 min 0 W/m² 12,9 km/h (3 Bft) 95,74 %
16.02.2026 05:30 3,4 °C 2,8 °C -1,1 °C 99 % 994,9 hPa 0,0 l/m² 0 min 0 min 0 W/m² 12,9 km/h (3 Bft) 91,49 %
16.02.2026 05:32 3,4 °C 2,8 °C -1,1 °C 99 % 994,9 hPa 0,0 l/m² 0 min 0 min 0 W/m² 6,4 km/h (2 Bft) 95,74 %
16.02.2026 05:34 3,4 °C 2,8 °C -1,1 °C 99 % 994,9 hPa 0,0 l/m² 0 min 0 min 0 W/m² 12,9 km/h (3 Bft) 95,74 %
16.02.2026 05:36 3,4 °C 2,8 °C -1,1 °C 99 % 995,0 hPa 0,2 l/m² 0 min 0 min 0 W/m² 9,7 km/h (2 Bft) 93,48 %
16.02.2026 05:38 3,4 °C 2,8 °C -1,1 °C 99 % 995,0 hPa 0,0 l/m² 0 min 0 min 0 W/m² 12,9 km/h (3 Bft) 95,74 %
16.02.2026 05:40 3,5 °C 2,8 °C -1,1 °C 99 % 994,9 hPa 0,0 l/m² 0 min 0 min 0 W/m² 12,9 km/h (3 Bft) 97,87 %
16.02.2026 05:42 3,6 °C 2,8 °C -1,1 °C 99 % 994,9 hPa 0,0 l/m² 0 min 0 min 0 W/m² 16,1 km/h (3 Bft) 97,87 %
16.02.2026 05:44 3,6 °C 2,8 °C -0,6 °C 99 % 994,9 hPa 0,0 l/m² 0 min 0 min 0 W/m² 12,9 km/h (3 Bft) 97,87 %
16.02.2026 05:46 3,6 °C 2,8 °C -0,6 °C 99 % 994,8 hPa 0,2 l/m² 0 min 0 min 0 W/m² 16,1 km/h (3 Bft) 95,74 %
16.02.2026 05:48 3,6 °C 2,8 °C -1,1 °C 99 % 994,8 hPa 0,0 l/m² 0 min 0 min 0 W/m² 6,4 km/h (2 Bft) 97,87 %
16.02.2026 05:50 3,6 °C 2,8 °C -0,6 °C 99 % 994,9 hPa 0,0 l/m² 0 min 0 min 0 W/m² 12,9 km/h (3 Bft) 97,87 %
16.02.2026 05:52 3,6 °C 2,8 °C -0,6 °C 99 % 994,9 hPa 0,0 l/m² 0 min 0 min 0 W/m² 19,3 km/h (3 Bft) 95,74 %
16.02.2026 05:54 3,6 °C 2,8 °C -0,6 °C 99 % 995,0 hPa 0,0 l/m² 0 min 0 min 0 W/m² 9,7 km/h (2 Bft) 93,62 %
16.02.2026 05:56 3,6 °C 2,8 °C -0,6 °C 99 % 994,9 hPa 0,0 l/m² 0 min 0 min 0 W/m² 9,7 km/h (2 Bft) 52,63 %
16.02.2026 05:58 3,6 °C 2,8 °C -0,6 °C 99 % 994,9 hPa 0,0 l/m² 0 min 0 min 0 W/m² 12,9 km/h (3 Bft) 97,83 %
16.02.2026 06:00 3,6 °C 2,8 °C -0,6 °C 99 % 994,9 hPa 0,2 l/m² 0 min 0 min 0 W/m² 6,4 km/h (2 Bft) 97,87 %
16.02.2026 06:02 3,6 °C 2,8 °C -0,6 °C 99 % 995,0 hPa 0,0 l/m² 0 min 0 min 0 W/m² 6,4 km/h (2 Bft) 97,87 %
16.02.2026 06:04 3,6 °C 2,8 °C -0,6 °C 99 % 995,0 hPa 0,0 l/m² 0 min 0 min 0 W/m² 9,7 km/h (2 Bft) 92,68 %
16.02.2026 06:07 3,6 °C 2,8 °C -0,6 °C 99 % 995,1 hPa 0,0 l/m² 0 min 0 min 0 W/m² 12,9 km/h (3 Bft) 97,47 %
16.02.2026 06:08 3,6 °C 2,8 °C -0,6 °C 99 % 995,1 hPa 0,0 l/m² 0 min 0 min 0 W/m² 12,9 km/h (3 Bft) 95,83 %
16.02.2026 06:12 3,7 °C 2,8 °C -0,6 °C 99 % 995,1 hPa 0,2 l/m² 0 min 0 min 0 W/m² 12,9 km/h (3 Bft) 98,21 %
16.02.2026 06:14 3,7 °C 2,8 °C -0,6 °C 99 % 995,1 hPa 0,0 l/m² 0 min 0 min 0 W/m² 6,4 km/h (2 Bft) 100,00 %
16.02.2026 06:16 3,7 °C 2,8 °C -0,6 °C 99 % 995,1 hPa 0,0 l/m² 0 min 0 min 0 W/m² 12,9 km/h (3 Bft) 97,87 %
16.02.2026 06:18 3,7 °C 2,8 °C -0,6 °C 99 % 995,0 hPa 0,0 l/m² 0 min 0 min 0 W/m² 9,7 km/h (2 Bft) 100,00 %
16.02.2026 06:20 3,7 °C 2,8 °C -0,6 °C 99 % 995,1 hPa 0,0 l/m² 0 min 0 min 0 W/m² 16,1 km/h (3 Bft) 93,62 %
16.02.2026 06:22 3,7 °C 2,8 °C -0,6 °C 99 % 995,1 hPa 0,0 l/m² 0 min 0 min 0 W/m² 12,9 km/h (3 Bft) 100,00 %
16.02.2026 06:24 3,8 °C 3,3 °C -0,6 °C 99 % 995,1 hPa 0,0 l/m² 0 min 0 min 0 W/m² 12,9 km/h (3 Bft) 100,00 %
16.02.2026 06:26 3,8 °C 3,3 °C -0,6 °C 99 % 995,1 hPa 0,0 l/m² 0 min 2 min 0 W/m² 16,1 km/h (3 Bft) 100,00 %
16.02.2026 06:28 3,8 °C 3,3 °C -0,6 °C 99 % 995,1 hPa 0,2 l/m² 0 min 2 min 0 W/m² 12,9 km/h (3 Bft) 100,00 %
16.02.2026 06:30 3,8 °C 3,3 °C -0,6 °C 99 % 995,0 hPa 0,0 l/m² 0 min 0 min 0 W/m² 12,9 km/h (3 Bft) 100,00 %
16.02.2026 06:32 3,8 °C 3,3 °C -0,6 °C 99 % 995,0 hPa 0,0 l/m² 0 min 0 min 0 W/m² 16,1 km/h (3 Bft) 100,00 %
16.02.2026 06:34 3,8 °C 3,3 °C -0,6 °C 99 % 994,9 hPa 0,0 l/m² 0 min 0 min 0 W/m² 9,7 km/h (2 Bft) 100,00 %
16.02.2026 06:36 3,9 °C 3,3 °C -0,6 °C 99 % 995,1 hPa 0,0 l/m² 0 min 0 min 0 W/m² 16,1 km/h (3 Bft) 97,87 %
16.02.2026 06:38 3,9 °C 3,3 °C -0,6 °C 99 % 995,0 hPa 0,2 l/m² 0 min 0 min 0 W/m² 9,7 km/h (2 Bft) 100,00 %
16.02.2026 06:40 3,9 °C 3,3 °C -0,6 °C 99 % 995,0 hPa 0,0 l/m² 0 min 0 min 0 W/m² 12,9 km/h (3 Bft) 100,00 %
16.02.2026 06:42 3,9 °C 3,3 °C -0,6 °C 99 % 995,0 hPa 0,0 l/m² 0 min 0 min 0 W/m² 16,1 km/h (3 Bft) 100,00 %
16.02.2026 06:44 3,9 °C 3,3 °C -0,6 °C 99 % 994,9 hPa 0,0 l/m² 0 min 0 min 0 W/m² 12,9 km/h (3 Bft) 100,00 %
16.02.2026 06:46 4,0 °C 3,3 °C -0,6 °C 99 % 994,9 hPa 0,0 l/m² 0 min 0 min 0 W/m² 6,4 km/h (2 Bft) 100,00 %
16.02.2026 06:48 4,0 °C 3,3 °C -0,6 °C 99 % 994,9 hPa 0,0 l/m² 0 min 0 min 0 W/m² 6,4 km/h (2 Bft) 97,87 %
16.02.2026 06:50 4,0 °C 3,3 °C -0,6 °C 99 % 995,0 hPa 0,0 l/m² 0 min 0 min 0 W/m² 16,1 km/h (3 Bft) 100,00 %
16.02.2026 06:52 4,1 °C 3,3 °C -0,6 °C 99 % 995,0 hPa 0,0 l/m² 0 min 0 min 0 W/m² 9,7 km/h (2 Bft) 97,87 %
16.02.2026 06:54 4,1 °C 3,3 °C -0,6 °C 99 % 994,9 hPa 0,0 l/m² 0 min 0 min 0 W/m² 12,9 km/h (3 Bft) 55,32 %
16.02.2026 06:56 4,1 °C 3,3 °C 0,0 °C 99 % 995,0 hPa 0,0 l/m² 0 min 0 min 0 W/m² 12,9 km/h (3 Bft) 100,00 %
16.02.2026 06:58 4,1 °C 3,3 °C -0,6 °C 99 % 995,0 hPa 0,0 l/m² 0 min 0 min 0 W/m² 16,1 km/h (3 Bft) 100,00 %
16.02.2026 07:00 4,1 °C 3,3 °C 0,0 °C 99 % 995,0 hPa 0,0 l/m² 0 min 0 min 0 W/m² 16,1 km/h (3 Bft) 95,74 %
16.02.2026 07:02 4,1 °C 3,3 °C 0,0 °C 99 % 995,0 hPa 0,0 l/m² 0 min 0 min 0 W/m² 9,7 km/h (2 Bft) 100,00 %
16.02.2026 07:04 4,1 °C 3,3 °C 0,0 °C 99 % 995,0 hPa 0,0 l/m² 0 min 0 min 0 W/m² 12,9 km/h (3 Bft) 97,87 %
16.02.2026 07:06 4,1 °C 3,3 °C 0,0 °C 99 % 995,0 hPa 0,2 l/m² 0 min 0 min 0 W/m² 12,9 km/h (3 Bft) 91,49 %
16.02.2026 07:08 4,2 °C 3,3 °C 0,0 °C 99 % 995,0 hPa 0,0 l/m² 0 min 0 min 0 W/m² 12,9 km/h (3 Bft) 95,83 %
16.02.2026 07:10 4,2 °C 3,3 °C 0,0 °C 99 % 995,0 hPa 0,0 l/m² 0 min 0 min 0 W/m² 16,1 km/h (3 Bft) 95,74 %
16.02.2026 07:12 4,2 °C 3,3 °C 0,0 °C 99 % 995,0 hPa 0,0 l/m² 0 min 0 min 0 W/m² 16,1 km/h (3 Bft) 95,74 %
16.02.2026 07:14 4,2 °C 3,3 °C 0,0 °C 99 % 995,0 hPa 0,0 l/m² 0 min 0 min 0 W/m² 12,9 km/h (3 Bft) 95,74 %
16.02.2026 07:16 4,2 °C 3,3 °C 0,0 °C 99 % 995,0 hPa 0,0 l/m² 0 min 0 min 0 W/m² 9,7 km/h (2 Bft) 95,74 %
16.02.2026 07:18 4,2 °C 3,3 °C 0,0 °C 99 % 995,0 hPa 0,0 l/m² 0 min 0 min 0 W/m² 12,9 km/h (3 Bft) 95,74 %
16.02.2026 07:20 4,2 °C 3,3 °C 0,0 °C 99 % 995,0 hPa 0,0 l/m² 0 min 0 min 0 W/m² 12,9 km/h (3 Bft) 95,65 %
16.02.2026 07:22 4,2 °C 3,3 °C 0,0 °C 99 % 995,0 hPa 0,0 l/m² 0 min 0 min 0 W/m² 9,7 km/h (2 Bft) 95,74 %
16.02.2026 07:24 4,2 °C 3,3 °C 0,0 °C 99 % 995,0 hPa 0,0 l/m² 0 min 0 min 0 W/m² 12,9 km/h (3 Bft) 95,74 %
16.02.2026 07:26 4,2 °C 3,3 °C 0,0 °C 99 % 995,1 hPa 0,0 l/m² 0 min 0 min 0 W/m² 16,1 km/h (3 Bft) 93,62 %
16.02.2026 07:28 4,2 °C 3,3 °C 0,0 °C 99 % 995,1 hPa 0,0 l/m² 0 min 0 min 0 W/m² 16,1 km/h (3 Bft) 95,74 %
16.02.2026 07:30 4,2 °C 3,3 °C 0,0 °C 99 % 995,1 hPa 0,0 l/m² 0 min 0 min 0 W/m² 9,7 km/h (2 Bft) 93,62 %
16.02.2026 07:32 4,3 °C 3,3 °C 0,0 °C 99 % 995,1 hPa 0,0 l/m² 0 min 0 min 0 W/m² 6,4 km/h (2 Bft) 95,74 %
16.02.2026 07:34 4,3 °C 3,3 °C 0,0 °C 99 % 995,1 hPa 0,0 l/m² 0 min 0 min 0 W/m² 12,9 km/h (3 Bft) 97,87 %
16.02.2026 07:36 4,3 °C 3,3 °C 0,0 °C 99 % 995,1 hPa 0,0 l/m² 0 min 0 min 0 W/m² 22,5 km/h (4 Bft) 95,74 %
16.02.2026 07:38 4,3 °C 3,9 °C 0,0 °C 99 % 995,1 hPa 0,0 l/m² 0 min 0 min 0 W/m² 6,4 km/h (2 Bft) 97,87 %
16.02.2026 07:40 4,3 °C 3,3 °C 0,0 °C 99 % 995,2 hPa 0,0 l/m² 0 min 0 min 0 W/m² 16,1 km/h (3 Bft) 97,87 %
16.02.2026 07:42 4,3 °C 3,3 °C 0,0 °C 99 % 995,2 hPa 0,0 l/m² 0 min 0 min 0 W/m² 12,9 km/h (3 Bft) 97,87 %
16.02.2026 07:44 4,3 °C 3,3 °C 0,0 °C 99 % 995,3 hPa 0,0 l/m² 0 min 0 min 0 W/m² 6,4 km/h (2 Bft) 97,83 %
16.02.2026 07:46 4,3 °C 3,3 °C 0,0 °C 99 % 995,3 hPa 0,0 l/m² 0 min 2 min 0 W/m² 12,9 km/h (3 Bft) 97,87 %
16.02.2026 07:48 4,3 °C 3,3 °C 0,0 °C 99 % 995,4 hPa 0,2 l/m² 0 min 2 min 0 W/m² 12,9 km/h (3 Bft) 100,00 %
16.02.2026 07:50 4,3 °C 3,3 °C 0,0 °C 99 % 995,4 hPa 0,0 l/m² 0 min 2 min 0 W/m² 9,7 km/h (2 Bft) 100,00 %
16.02.2026 07:52 4,3 °C 3,3 °C 0,0 °C 99 % 995,5 hPa 0,2 l/m² 0 min 2 min 0 W/m² 6,4 km/h (2 Bft) 100,00 %
16.02.2026 07:54 4,3 °C 3,3 °C 0,0 °C 99 % 995,4 hPa 0,2 l/m² 0 min 2 min 0 W/m² 6,4 km/h (2 Bft) 36,36 %
16.02.2026 07:56 4,3 °C 3,3 °C 0,0 °C 99 % 995,4 hPa 0,2 l/m² 0 min 2 min 0 W/m² 9,7 km/h (2 Bft) 100,00 %
16.02.2026 07:58 4,3 °C 3,3 °C 0,0 °C 99 % 995,4 hPa 0,0 l/m² 0 min 2 min 0 W/m² 6,4 km/h (2 Bft) 100,00 %
16.02.2026 08:00 4,3 °C 3,3 °C 0,0 °C 99 % 995,4 hPa 0,0 l/m² 0 min 0 min 0 W/m² 3,2 km/h (1 Bft) 97,87 %
16.02.2026 08:02 4,3 °C 3,3 °C 0,0 °C 99 % 995,4 hPa 0,0 l/m² 0 min 0 min 0 W/m² 3,2 km/h (1 Bft) 100,00 %
16.02.2026 08:04 4,3 °C 3,3 °C 0,0 °C 99 % 995,4 hPa 0,0 l/m² 0 min 0 min 0 W/m² 9,7 km/h (2 Bft) 100,00 %
16.02.2026 08:06 4,3 °C 3,3 °C 0,0 °C 99 % 995,4 hPa 0,0 l/m² 0 min 0 min 0 W/m² 3,2 km/h (1 Bft) 100,00 %
16.02.2026 08:08 4,3 °C 3,9 °C 0,0 °C 99 % 995,4 hPa 0,0 l/m² 0 min 0 min 0 W/m² 12,9 km/h (3 Bft) 100,00 %
16.02.2026 08:10 4,3 °C 3,9 °C 0,0 °C 99 % 995,4 hPa 0,0 l/m² 0 min 2 min 0 W/m² 3,2 km/h (1 Bft) 100,00 %
16.02.2026 08:12 4,3 °C 3,9 °C 0,0 °C 99 % 995,4 hPa 0,2 l/m² 0 min 2 min 0 W/m² 6,4 km/h (2 Bft) 100,00 %
16.02.2026 08:14 4,3 °C 3,9 °C 0,0 °C 99 % 995,4 hPa 0,0 l/m² 0 min 0 min 0 W/m² 12,9 km/h (3 Bft) 100,00 %
16.02.2026 08:16 4,4 °C 3,9 °C 0,0 °C 99 % 995,4 hPa 0,0 l/m² 0 min 0 min 3 W/m² 6,4 km/h (2 Bft) 97,87 %
16.02.2026 08:18 4,4 °C 3,9 °C 0,0 °C 99 % 995,3 hPa 0,0 l/m² 0 min 0 min 6 W/m² 9,7 km/h (2 Bft) 97,87 %
16.02.2026 08:20 4,4 °C 3,9 °C 0,0 °C 99 % 995,4 hPa 0,0 l/m² 0 min 0 min 10 W/m² 22,5 km/h (4 Bft) 97,87 %
16.02.2026 08:22 4,5 °C 3,9 °C 0,0 °C 99 % 995,4 hPa 0,0 l/m² 0 min 0 min 12 W/m² 12,9 km/h (3 Bft) 93,62 %
16.02.2026 08:24 4,5 °C 3,9 °C 0,0 °C 99 % 995,3 hPa 0,0 l/m² 0 min 0 min 15 W/m² 9,7 km/h (2 Bft) 97,87 %
16.02.2026 08:26 4,5 °C 3,9 °C 0,0 °C 99 % 995,3 hPa 0,0 l/m² 0 min 0 min 18 W/m² 12,9 km/h (3 Bft) 97,87 %
16.02.2026 08:28 4,5 °C 3,9 °C 0,0 °C 99 % 995,3 hPa 0,0 l/m² 0 min 0 min 24 W/m² 6,4 km/h (2 Bft) 97,87 %
16.02.2026 08:30 4,5 °C 3,9 °C 0,0 °C 99 % 995,4 hPa 0,0 l/m² 0 min 0 min 25 W/m² 9,7 km/h (2 Bft) 95,74 %
16.02.2026 08:32 4,5 °C 3,9 °C 0,0 °C 99 % 995,4 hPa 0,0 l/m² 0 min 0 min 24 W/m² 12,9 km/h (3 Bft) 97,87 %
16.02.2026 08:34 4,5 °C 3,9 °C 0,0 °C 99 % 995,4 hPa 0,0 l/m² 0 min 0 min 25 W/m² 12,9 km/h (3 Bft) 97,87 %
16.02.2026 08:36 4,6 °C 3,9 °C 0,6 °C 99 % 995,3 hPa 0,0 l/m² 0 min 0 min 24 W/m² 12,9 km/h (3 Bft) 97,87 %
16.02.2026 08:38 4,6 °C 3,9 °C 0,6 °C 99 % 995,4 hPa 0,0 l/m² 0 min 0 min 28 W/m² 12,9 km/h (3 Bft) 95,74 %
16.02.2026 08:40 4,6 °C 3,9 °C 0,6 °C 99 % 995,3 hPa 0,0 l/m² 0 min 0 min 42 W/m² 16,1 km/h (3 Bft) 95,65 %
16.02.2026 08:42 4,6 °C 3,9 °C 0,6 °C 99 % 995,5 hPa 0,0 l/m² 0 min 0 min 40 W/m² 16,1 km/h (3 Bft) 97,87 %
16.02.2026 08:44 4,6 °C 3,9 °C 0,6 °C 99 % 995,4 hPa 0,0 l/m² 0 min 0 min 44 W/m² 12,9 km/h (3 Bft) 95,74 %
16.02.2026 08:46 4,7 °C 3,9 °C 0,6 °C 99 % 995,5 hPa 0,0 l/m² 0 min 0 min 43 W/m² 6,4 km/h (2 Bft) 97,87 %
16.02.2026 08:48 4,7 °C 3,9 °C 0,6 °C 99 % 995,4 hPa 0,0 l/m² 0 min 0 min 41 W/m² 16,1 km/h (3 Bft) 97,87 %
16.02.2026 08:50 4,7 °C 3,9 °C 0,6 °C 99 % 995,4 hPa 0,0 l/m² 0 min 0 min 38 W/m² 9,7 km/h (2 Bft) 97,87 %
16.02.2026 08:52 4,7 °C 3,9 °C 0,6 °C 99 % 995,5 hPa 0,0 l/m² 0 min 0 min 38 W/m² 6,4 km/h (2 Bft) 97,87 %
16.02.2026 08:54 4,7 °C 3,9 °C 0,6 °C 99 % 995,4 hPa 0,0 l/m² 0 min 0 min 44 W/m² 16,1 km/h (3 Bft) 100,00 %
16.02.2026 08:56 4,7 °C 3,9 °C 0,6 °C 99 % 995,5 hPa 0,0 l/m² 0 min 0 min 45 W/m² 12,9 km/h (3 Bft) 95,74 %
16.02.2026 08:58 4,7 °C 4,4 °C 0,6 °C 99 % 995,5 hPa 0,0 l/m² 0 min 0 min 42 W/m² 16,1 km/h (3 Bft) 95,74 %
16.02.2026 09:00 4,7 °C 3,9 °C 0,6 °C 99 % 995,4 hPa 0,0 l/m² 0 min 0 min 40 W/m² 12,9 km/h (3 Bft) 93,48 %
16.02.2026 09:02 4,7 °C 4,4 °C 0,6 °C 99 % 995,5 hPa 0,0 l/m² 0 min 0 min 46 W/m² 6,4 km/h (2 Bft) 93,62 %
16.02.2026 09:04 4,7 °C 4,4 °C 0,6 °C 99 % 995,4 hPa 0,0 l/m² 0 min 0 min 48 W/m² 19,3 km/h (3 Bft) 95,24 %
16.02.2026 09:06 4,7 °C 4,4 °C 0,6 °C 99 % 995,4 hPa 0,0 l/m² 0 min 0 min 40 W/m² 16,1 km/h (3 Bft) 93,62 %
16.02.2026 09:08 4,8 °C 4,4 °C 0,6 °C 99 % 995,5 hPa 0,0 l/m² 0 min 0 min 45 W/m² 16,1 km/h (3 Bft) 98,11 %
16.02.2026 09:10 4,8 °C 4,4 °C 0,6 °C 99 % 995,4 hPa 0,0 l/m² 0 min 0 min 48 W/m² 16,1 km/h (3 Bft) 95,74 %
16.02.2026 09:12 4,8 °C 4,4 °C 0,6 °C 99 % 995,5 hPa 0,0 l/m² 0 min 0 min 52 W/m² 9,7 km/h (2 Bft) 95,74 %
16.02.2026 09:14 4,8 °C 4,4 °C 0,6 °C 99 % 995,5 hPa 0,0 l/m² 0 min 0 min 48 W/m² 16,1 km/h (3 Bft) 95,74 %
16.02.2026 09:16 4,8 °C 4,4 °C 0,6 °C 99 % 995,6 hPa 0,0 l/m² 0 min 0 min 56 W/m² 12,9 km/h (3 Bft) 97,87 %
16.02.2026 09:18 4,8 °C 4,4 °C 0,6 °C 99 % 995,5 hPa 0,0 l/m² 0 min 0 min 98 W/m² 9,7 km/h (2 Bft) 97,87 %
16.02.2026 09:20 4,8 °C 4,4 °C 0,6 °C 99 % 995,4 hPa 0,0 l/m² 0 min 0 min 103 W/m² 19,3 km/h (3 Bft) 97,87 %
16.02.2026 09:22 4,8 °C 4,4 °C 0,6 °C 99 % 995,5 hPa 0,0 l/m² 0 min 0 min 89 W/m² 16,1 km/h (3 Bft) 95,65 %
16.02.2026 09:24 4,9 °C 5,0 °C 1,1 °C 99 % 995,5 hPa 0,0 l/m² 0 min 0 min 95 W/m² 6,4 km/h (2 Bft) 95,74 %
16.02.2026 09:26 4,9 °C 5,0 °C 1,1 °C 99 % 995,5 hPa 0,0 l/m² 0 min 0 min 75 W/m² 6,4 km/h (2 Bft) 97,87 %
16.02.2026 09:28 4,9 °C 5,0 °C 0,6 °C 99 % 995,5 hPa 0,0 l/m² 0 min 0 min 53 W/m² 16,1 km/h (3 Bft) 95,74 %
16.02.2026 09:30 4,9 °C 4,4 °C 0,6 °C 99 % 995,5 hPa 0,0 l/m² 0 min 0 min 44 W/m² 12,9 km/h (3 Bft) 100,00 %
16.02.2026 09:32 4,9 °C 4,4 °C 0,6 °C 99 % 995,5 hPa 0,0 l/m² 0 min 0 min 51 W/m² 16,1 km/h (3 Bft) 100,00 %
16.02.2026 09:34 4,9 °C 4,4 °C 0,6 °C 99 % 995,4 hPa 0,0 l/m² 0 min 0 min 69 W/m² 12,9 km/h (3 Bft) 100,00 %
16.02.2026 09:36 4,9 °C 5,0 °C 0,6 °C 99 % 995,4 hPa 0,0 l/m² 0 min 0 min 83 W/m² 12,9 km/h (3 Bft) 100,00 %
16.02.2026 09:38 4,9 °C 5,0 °C 0,6 °C 99 % 995,4 hPa 0,0 l/m² 0 min 0 min 90 W/m² 6,4 km/h (2 Bft) 97,87 %
16.02.2026 09:40 4,9 °C 5,0 °C 0,6 °C 99 % 995,5 hPa 0,0 l/m² 0 min 0 min 112 W/m² 6,4 km/h (2 Bft) 97,87 %
16.02.2026 09:42 5,0 °C 5,0 °C 1,1 °C 99 % 995,5 hPa 0,0 l/m² 0 min 0 min 105 W/m² 6,4 km/h (2 Bft) 93,62 %
16.02.2026 09:44 5,0 °C 5,0 °C 1,1 °C 99 % 995,5 hPa 0,0 l/m² 0 min 0 min 92 W/m² 12,9 km/h (3 Bft) 97,87 %
16.02.2026 09:46 5,1 °C 5,0 °C 1,1 °C 99 % 995,5 hPa 0,0 l/m² 0 min 0 min 98 W/m² 6,4 km/h (2 Bft) 97,83 %
16.02.2026 09:48 5,1 °C 5,0 °C 1,1 °C 99 % 995,5 hPa 0,0 l/m² 0 min 0 min 104 W/m² 19,3 km/h (3 Bft) 95,74 %
16.02.2026 09:50 5,1 °C 5,0 °C 1,1 °C 99 % 995,5 hPa 0,0 l/m² 0 min 0 min 95 W/m² 9,7 km/h (2 Bft) 97,87 %
16.02.2026 09:52 5,2 °C 5,0 °C 1,1 °C 99 % 995,4 hPa 0,0 l/m² 0 min 0 min 90 W/m² 16,1 km/h (3 Bft) 95,74 %
16.02.2026 09:54 5,2 °C 5,0 °C 1,1 °C 99 % 995,4 hPa 0,0 l/m² 0 min 0 min 100 W/m² 16,1 km/h (3 Bft) 97,87 %
16.02.2026 09:56 5,2 °C 5,0 °C 1,1 °C 99 % 995,4 hPa 0,0 l/m² 0 min 0 min 102 W/m² 16,1 km/h (3 Bft) 95,74 %
16.02.2026 09:58 5,2 °C 5,0 °C 1,1 °C 99 % 995,4 hPa 0,0 l/m² 0 min 0 min 100 W/m² 16,1 km/h (3 Bft) 95,74 %
16.02.2026 10:00 5,2 °C 5,0 °C 1,1 °C 99 % 995,4 hPa 0,0 l/m² 0 min 0 min 112 W/m² 12,9 km/h (3 Bft) 97,87 %
16.02.2026 10:02 5,2 °C 5,6 °C 1,1 °C 99 % 995,4 hPa 0,0 l/m² 0 min 0 min 96 W/m² 16,1 km/h (3 Bft) 97,87 %
16.02.2026 10:04 5,3 °C 5,6 °C 1,1 °C 99 % 995,4 hPa 0,0 l/m² 0 min 0 min 137 W/m² 12,9 km/h (3 Bft) 95,12 %
16.02.2026 10:06 5,3 °C 5,6 °C 1,1 °C 99 % 995,4 hPa 0,0 l/m² 0 min 0 min 109 W/m² 6,4 km/h (2 Bft) 97,87 %
16.02.2026 10:08 5,3 °C 5,6 °C 1,1 °C 99 % 995,5 hPa 0,0 l/m² 0 min 0 min 114 W/m² 12,9 km/h (3 Bft) 98,15 %
16.02.2026 10:10 5,4 °C 5,6 °C 1,1 °C 99 % 995,5 hPa 0,0 l/m² 0 min 0 min 99 W/m² 6,4 km/h (2 Bft) 95,65 %
16.02.2026 10:12 5,4 °C 5,6 °C 1,1 °C 99 % 995,5 hPa 0,0 l/m² 0 min 0 min 94 W/m² 16,1 km/h (3 Bft) 97,87 %
16.02.2026 10:14 5,4 °C 5,6 °C 1,1 °C 99 % 995,5 hPa 0,0 l/m² 0 min 0 min 94 W/m² 16,1 km/h (3 Bft) 97,87 %
16.02.2026 10:16 5,4 °C 5,6 °C 1,1 °C 99 % 995,4 hPa 0,0 l/m² 0 min 0 min 107 W/m² 16,1 km/h (3 Bft) 95,74 %
16.02.2026 10:18 5,4 °C 5,6 °C 1,1 °C 99 % 995,4 hPa 0,0 l/m² 0 min 0 min 105 W/m² 9,7 km/h (2 Bft) 97,87 %
16.02.2026 10:20 5,4 °C 5,6 °C 1,1 °C 99 % 995,5 hPa 0,0 l/m² 0 min 0 min 113 W/m² 16,1 km/h (3 Bft) 97,87 %
16.02.2026 10:22 5,4 °C 5,6 °C 1,7 °C 99 % 995,4 hPa 0,0 l/m² 0 min 0 min 122 W/m² 19,3 km/h (3 Bft) 93,62 %
16.02.2026 10:24 5,5 °C 5,6 °C 1,7 °C 99 % 995,4 hPa 0,0 l/m² 0 min 0 min 114 W/m² 16,1 km/h (3 Bft) 100,00 %
16.02.2026 10:26 5,5 °C 6,1 °C 1,7 °C 99 % 995,4 hPa 0,0 l/m² 0 min 0 min 115 W/m² 9,7 km/h (2 Bft) 97,87 %
16.02.2026 10:28 5,6 °C 6,1 °C 1,7 °C 99 % 995,4 hPa 0,0 l/m² 0 min 0 min 114 W/m² 19,3 km/h (3 Bft) 97,87 %
16.02.2026 10:30 5,6 °C 6,1 °C 1,7 °C 99 % 995,4 hPa 0,0 l/m² 0 min 0 min 122 W/m² 19,3 km/h (3 Bft) 95,74 %
16.02.2026 10:32 5,6 °C 6,1 °C 1,7 °C 99 % 995,2 hPa 0,0 l/m² 0 min 0 min 116 W/m² 16,1 km/h (3 Bft) 100,00 %
16.02.2026 10:34 5,6 °C 6,1 °C 1,7 °C 99 % 995,3 hPa 0,0 l/m² 0 min 0 min 125 W/m² 12,9 km/h (3 Bft) 95,74 %
16.02.2026 10:36 5,7 °C 6,1 °C 1,7 °C 99 % 995,3 hPa 0,0 l/m² 0 min 0 min 98 W/m² 19,3 km/h (3 Bft) 100,00 %
16.02.2026 10:38 5,7 °C 6,1 °C 1,7 °C 99 % 995,3 hPa 0,0 l/m² 0 min 0 min 77 W/m² 19,3 km/h (3 Bft) 100,00 %
16.02.2026 10:40 5,7 °C 6,1 °C 1,7 °C 99 % 995,3 hPa 0,0 l/m² 0 min 0 min 83 W/m² 16,1 km/h (3 Bft) 97,87 %
16.02.2026 10:42 5,7 °C 6,1 °C 1,7 °C 99 % 995,3 hPa 0,0 l/m² 0 min 0 min 117 W/m² 16,1 km/h (3 Bft) 97,87 %
16.02.2026 10:44 5,7 °C 6,7 °C 1,7 °C 99 % 995,4 hPa 0,0 l/m² 0 min 0 min 172 W/m² 12,9 km/h (3 Bft) 100,00 %
16.02.2026 10:46 5,8 °C 8,9 °C 1,7 °C 99 % 995,3 hPa 0,0 l/m² 0 min 0 min 169 W/m² 12,9 km/h (3 Bft) 97,87 %
16.02.2026 10:48 5,9 °C 8,9 °C 2,2 °C 99 % 995,4 hPa 0,0 l/m² 2 min 0 min 237 W/m² 12,9 km/h (3 Bft) 100,00 %
16.02.2026 10:50 6,1 °C 9,4 °C 2,2 °C 99 % 995,3 hPa 0,0 l/m² 2 min 0 min 318 W/m² 16,1 km/h (3 Bft) 95,74 %
16.02.2026 10:52 6,1 °C 9,4 °C 2,2 °C 99 % 995,3 hPa 0,0 l/m² 2 min 0 min 385 W/m² 19,3 km/h (3 Bft) 97,87 %
16.02.2026 10:54 6,2 °C 10,6 °C 2,2 °C 99 % 995,4 hPa 0,0 l/m² 2 min 0 min 385 W/m² 12,9 km/h (3 Bft) 97,87 %
16.02.2026 10:56 6,3 °C 9,4 °C 2,2 °C 99 % 995,3 hPa 0,0 l/m² 2 min 0 min 235 W/m² 16,1 km/h (3 Bft) 97,83 %
16.02.2026 10:58 6,3 °C 9,4 °C 2,2 °C 99 % 995,2 hPa 0,0 l/m² 2 min 0 min 239 W/m² 16,1 km/h (3 Bft) 97,87 %
16.02.2026 11:00 6,4 °C 10,0 °C 2,2 °C 99 % 995,2 hPa 0,0 l/m² 2 min 0 min 241 W/m² 16,1 km/h (3 Bft) 97,87 %
16.02.2026 11:02 6,5 °C 12,2 °C 2,8 °C 99 % 995,2 hPa 0,0 l/m² 2 min 0 min 346 W/m² 16,1 km/h (3 Bft) 95,74 %
16.02.2026 11:04 6,6 °C 13,9 °C 2,8 °C 98 % 995,2 hPa 0,0 l/m² 2 min 0 min 466 W/m² 16,1 km/h (3 Bft) 97,62 %
16.02.2026 11:06 6,8 °C 14,4 °C 2,8 °C 99 % 995,1 hPa 0,0 l/m² 2 min 0 min 474 W/m² 12,9 km/h (3 Bft) 95,65 %
16.02.2026 11:08 6,9 °C 13,9 °C 2,8 °C 98 % 995,1 hPa 0,0 l/m² 2 min 0 min 420 W/m² 16,1 km/h (3 Bft) 94,44 %
16.02.2026 11:10 6,9 °C 11,1 °C 2,8 °C 98 % 995,1 hPa 0,0 l/m² 2 min 0 min 252 W/m² 16,1 km/h (3 Bft) 94,29 %
16.02.2026 11:12 6,9 °C 9,4 °C 2,8 °C 98 % 995,1 hPa 0,0 l/m² 0 min 0 min 133 W/m² 19,3 km/h (3 Bft) 95,74 %
16.02.2026 11:14 6,9 °C 10,0 °C 2,8 °C 98 % 995,1 hPa 0,0 l/m² 0 min 0 min 149 W/m² 25,7 km/h (4 Bft) 95,74 %
16.02.2026 11:16 6,9 °C 10,6 °C 3,3 °C 98 % 995,1 hPa 0,0 l/m² 2 min 0 min 352 W/m² 16,1 km/h (3 Bft) 54,35 %
16.02.2026 11:18 7,1 °C 11,7 °C 3,9 °C 98 % 995,2 hPa 0,0 l/m² 2 min 0 min 405 W/m² 29,0 km/h (5 Bft) 95,00 %
16.02.2026 11:20 7,1 °C 10,6 °C 3,3 °C 97 % 995,1 hPa 0,0 l/m² 2 min 0 min 298 W/m² 19,3 km/h (3 Bft) 95,74 %
16.02.2026 11:22 7,1 °C 11,7 °C 3,9 °C 97 % 995,1 hPa 0,0 l/m² 2 min 0 min 322 W/m² 19,3 km/h (3 Bft) 95,74 %
16.02.2026 11:24 7,2 °C 11,7 °C 3,9 °C 97 % 995,1 hPa 0,0 l/m² 2 min 0 min 389 W/m² 22,5 km/h (4 Bft) 95,65 %
16.02.2026 11:26 7,2 °C 10,0 °C 3,3 °C 96 % 995,0 hPa 0,0 l/m² 0 min 0 min 167 W/m² 12,9 km/h (3 Bft) 95,74 %
16.02.2026 11:28 7,2 °C 10,6 °C 3,3 °C 96 % 995,0 hPa 0,0 l/m² 0 min 0 min 165 W/m² 22,5 km/h (4 Bft) 95,74 %
16.02.2026 11:30 7,2 °C 10,6 °C 3,9 °C 96 % 995,0 hPa 0,0 l/m² 2 min 0 min 289 W/m² 16,1 km/h (3 Bft) 98,00 %
16.02.2026 11:32 7,2 °C 9,4 °C 2,8 °C 95 % 995,0 hPa 0,0 l/m² 2 min 0 min 236 W/m² 19,3 km/h (3 Bft) 95,92 %
16.02.2026 11:34 7,1 °C 8,9 °C 2,8 °C 95 % 995,1 hPa 0,0 l/m² 0 min 0 min 112 W/m² 29,0 km/h (5 Bft) 95,74 %
16.02.2026 11:36 7,1 °C 8,3 °C 2,8 °C 95 % 995,1 hPa 0,0 l/m² 0 min 0 min 195 W/m² 32,2 km/h (5 Bft) 97,87 %
16.02.2026 11:38 7,1 °C 8,9 °C 2,8 °C 94 % 995,0 hPa 0,0 l/m² 2 min 0 min 248 W/m² 6,4 km/h (2 Bft) 97,87 %
16.02.2026 11:40 7,2 °C 8,3 °C 2,8 °C 94 % 995,1 hPa 0,0 l/m² 0 min 0 min 170 W/m² 19,3 km/h (3 Bft) 97,87 %
16.02.2026 11:42 7,2 °C 8,3 °C 2,8 °C 94 % 995,0 hPa 0,0 l/m² 0 min 0 min 163 W/m² 16,1 km/h (3 Bft) 97,87 %
16.02.2026 11:44 7,2 °C 8,3 °C 2,8 °C 94 % 995,0 hPa 0,0 l/m² 0 min 0 min 195 W/m² 16,1 km/h (3 Bft) 97,87 %
16.02.2026 11:46 7,2 °C 9,4 °C 2,8 °C 94 % 995,0 hPa 0,0 l/m² 2 min 0 min 215 W/m² 12,9 km/h (3 Bft) 97,87 %
16.02.2026 11:48 7,3 °C 10,6 °C 3,3 °C 94 % 995,0 hPa 0,0 l/m² 0 min 0 min 157 W/m² 12,9 km/h (3 Bft) 95,74 %
16.02.2026 11:50 7,4 °C 12,8 °C 4,4 °C 94 % 995,0 hPa 0,0 l/m² 2 min 0 min 396 W/m² 16,1 km/h (3 Bft) 93,62 %
16.02.2026 11:52 7,6 °C 11,7 °C 3,9 °C 93 % 995,0 hPa 0,0 l/m² 0 min 0 min 214 W/m² 25,7 km/h (4 Bft) 95,65 %
16.02.2026 11:54 7,6 °C 10,6 °C 3,9 °C 93 % 995,0 hPa 0,0 l/m² 2 min 0 min 229 W/m² 22,5 km/h (4 Bft) 97,87 %
16.02.2026 11:56 7,6 °C 10,6 °C 3,3 °C 93 % 995,0 hPa 0,0 l/m² 0 min 0 min 203 W/m² 16,1 km/h (3 Bft) 100,00 %
16.02.2026 11:58 7,7 °C 10,0 °C 3,3 °C 93 % 994,9 hPa 0,0 l/m² 0 min 0 min 195 W/m² 12,9 km/h (3 Bft) 100,00 %
16.02.2026 12:00 7,7 °C 8,9 °C 2,8 °C 92 % 994,9 hPa 0,0 l/m² 0 min 0 min 129 W/m² 16,1 km/h (3 Bft) 97,87 %
16.02.2026 12:02 7,7 °C 8,3 °C 2,8 °C 92 % 994,9 hPa 0,0 l/m² 0 min 0 min 124 W/m² 6,4 km/h (2 Bft) 100,00 %
16.02.2026 12:04 7,6 °C 8,3 °C 2,8 °C 92 % 994,9 hPa 0,0 l/m² 0 min 0 min 135 W/m² 12,9 km/h (3 Bft) 97,87 %
16.02.2026 12:07 7,6 °C 7,8 °C 2,8 °C 91 % 994,9 hPa 0,0 l/m² 0 min 0 min 124 W/m² 12,9 km/h (3 Bft) 98,59 %
16.02.2026 12:08 7,6 °C 7,8 °C 2,8 °C 91 % 994,9 hPa 0,0 l/m² 0 min 0 min 134 W/m² 9,7 km/h (2 Bft) 100,00 %
16.02.2026 12:12 7,5 °C 7,8 °C 2,2 °C 91 % 994,8 hPa 0,0 l/m² 0 min 0 min 103 W/m² 16,1 km/h (3 Bft) 98,21 %
16.02.2026 12:14 7,4 °C 7,2 °C 2,2 °C 91 % 994,8 hPa 0,0 l/m² 0 min 0 min 94 W/m² 12,9 km/h (3 Bft) 100,00 %
16.02.2026 12:16 7,4 °C 7,2 °C 2,2 °C 91 % 994,8 hPa 0,0 l/m² 0 min 0 min 109 W/m² 16,1 km/h (3 Bft) 100,00 %
16.02.2026 12:18 7,4 °C 7,8 °C 2,2 °C 90 % 994,8 hPa 0,0 l/m² 0 min 0 min 167 W/m² 19,3 km/h (3 Bft) 100,00 %
16.02.2026 12:20 7,4 °C 8,9 °C 2,8 °C 90 % 994,8 hPa 0,0 l/m² 2 min 0 min 271 W/m² 12,9 km/h (3 Bft) 100,00 %
16.02.2026 12:22 7,5 °C 9,4 °C 3,3 °C 90 % 994,7 hPa 0,0 l/m² 2 min 0 min 324 W/m² 19,3 km/h (3 Bft) 100,00 %
16.02.2026 12:24 7,6 °C 10,0 °C 3,3 °C 90 % 994,7 hPa 0,0 l/m² 2 min 0 min 292 W/m² 12,9 km/h (3 Bft) 95,74 %
16.02.2026 12:26 7,6 °C 9,4 °C 3,3 °C 90 % 994,7 hPa 0,0 l/m² 2 min 0 min 300 W/m² 19,3 km/h (3 Bft) 100,00 %
16.02.2026 12:28 7,7 °C 8,9 °C 2,8 °C 90 % 994,8 hPa 0,0 l/m² 0 min 0 min 164 W/m² 12,9 km/h (3 Bft) 100,00 %
16.02.2026 12:30 7,6 °C 8,3 °C 2,2 °C 89 % 994,8 hPa 0,0 l/m² 0 min 0 min 114 W/m² 12,9 km/h (3 Bft) 100,00 %
16.02.2026 12:32 7,6 °C 7,8 °C 2,2 °C 89 % 994,8 hPa 0,0 l/m² 0 min 0 min 86 W/m² 19,3 km/h (3 Bft) 97,87 %
16.02.2026 12:34 7,5 °C 7,2 °C 2,2 °C 89 % 994,7 hPa 0,0 l/m² 0 min 0 min 68 W/m² 12,9 km/h (3 Bft) 100,00 %
16.02.2026 12:36 7,5 °C 7,2 °C 2,2 °C 89 % 994,7 hPa 0,0 l/m² 0 min 0 min 44 W/m² 12,9 km/h (3 Bft) 97,87 %
16.02.2026 12:38 7,4 °C 6,7 °C 2,2 °C 89 % 994,6 hPa 0,0 l/m² 0 min 0 min 28 W/m² 16,1 km/h (3 Bft) 100,00 %
16.02.2026 12:40 7,4 °C 6,7 °C 2,2 °C 89 % 994,8 hPa 0,0 l/m² 0 min 0 min 26 W/m² 22,5 km/h (4 Bft) 100,00 %
16.02.2026 12:42 7,2 °C 6,1 °C 2,2 °C 88 % 994,8 hPa 0,0 l/m² 0 min 0 min 29 W/m² 19,3 km/h (3 Bft) 95,74 %
16.02.2026 12:44 7,1 °C 6,1 °C 2,2 °C 89 % 994,8 hPa 0,0 l/m² 0 min 0 min 36 W/m² 16,1 km/h (3 Bft) 97,87 %
16.02.2026 12:46 7,0 °C 6,1 °C 1,7 °C 89 % 994,8 hPa 0,2 l/m² 0 min 0 min 55 W/m² 16,1 km/h (3 Bft) 97,83 %
16.02.2026 12:48 6,9 °C 6,1 °C 2,2 °C 89 % 994,8 hPa 0,0 l/m² 0 min 0 min 88 W/m² 22,5 km/h (4 Bft) 95,74 %
16.02.2026 12:50 6,9 °C 6,1 °C 2,2 °C 90 % 994,7 hPa 0,0 l/m² 0 min 0 min 128 W/m² 16,1 km/h (3 Bft) 100,00 %
16.02.2026 12:52 6,9 °C 6,7 °C 2,2 °C 90 % 994,8 hPa 0,0 l/m² 0 min 0 min 143 W/m² 12,9 km/h (3 Bft) 95,74 %
16.02.2026 12:54 6,8 °C 6,7 °C 2,2 °C 90 % 994,6 hPa 0,0 l/m² 0 min 0 min 142 W/m² 22,5 km/h (4 Bft) 97,87 %
16.02.2026 12:56 6,8 °C 6,7 °C 2,2 °C 91 % 994,6 hPa 0,0 l/m² 0 min 2 min 144 W/m² 16,1 km/h (3 Bft) 97,87 %
16.02.2026 12:58 6,7 °C 6,7 °C 2,2 °C 91 % 994,7 hPa 0,0 l/m² 0 min 0 min 149 W/m² 22,5 km/h (4 Bft) 97,87 %
16.02.2026 13:00 6,7 °C 6,7 °C 2,2 °C 91 % 994,7 hPa 0,0 l/m² 0 min 0 min 154 W/m² 22,5 km/h (4 Bft) 97,87 %
16.02.2026 13:02 6,7 °C 7,2 °C 2,2 °C 91 % 994,7 hPa 0,0 l/m² 0 min 0 min 163 W/m² 12,9 km/h (3 Bft) 93,62 %
16.02.2026 13:04 6,7 °C 7,2 °C 2,2 °C 91 % 994,7 hPa 0,0 l/m² 0 min 0 min 183 W/m² 16,1 km/h (3 Bft) 95,74 %
16.02.2026 13:06 6,8 °C 7,2 °C 2,2 °C 92 % 994,6 hPa 0,0 l/m² 0 min 0 min 195 W/m² 16,1 km/h (3 Bft) 95,74 %
16.02.2026 13:08 6,8 °C 7,2 °C 2,2 °C 92 % 994,6 hPa 0,0 l/m² 0 min 0 min 168 W/m² 12,9 km/h (3 Bft) 95,74 %
16.02.2026 13:10 6,8 °C 7,2 °C 2,2 °C 92 % 994,7 hPa 0,0 l/m² 0 min 0 min 140 W/m² 12,9 km/h (3 Bft) 95,65 %
16.02.2026 13:12 6,8 °C 7,2 °C 2,2 °C 92 % 994,6 hPa 0,0 l/m² 0 min 0 min 128 W/m² 6,4 km/h (2 Bft) 95,74 %
16.02.2026 13:14 6,8 °C 7,2 °C 2,2 °C 92 % 994,6 hPa 0,0 l/m² 0 min 0 min 122 W/m² 9,7 km/h (2 Bft) 95,74 %
16.02.2026 13:16 6,8 °C 7,2 °C 2,2 °C 92 % 994,6 hPa 0,0 l/m² 0 min 0 min 124 W/m² 16,1 km/h (3 Bft) 93,62 %
16.02.2026 13:18 6,8 °C 6,7 °C 2,2 °C 92 % 994,6 hPa 0,0 l/m² 0 min 0 min 127 W/m² 19,3 km/h (3 Bft) 95,74 %
16.02.2026 13:20 6,8 °C 6,7 °C 2,2 °C 91 % 994,6 hPa 0,0 l/m² 0 min 0 min 127 W/m² 16,1 km/h (3 Bft) 93,62 %
16.02.2026 13:22 6,8 °C 6,7 °C 2,2 °C 92 % 994,6 hPa 0,0 l/m² 0 min 0 min 124 W/m² 16,1 km/h (3 Bft) 95,74 %
16.02.2026 13:24 6,8 °C 6,7 °C 2,2 °C 92 % 994,6 hPa 0,0 l/m² 0 min 0 min 116 W/m² 12,9 km/h (3 Bft) 97,87 %
16.02.2026 13:26 6,8 °C 6,7 °C 1,7 °C 91 % 994,6 hPa 0,0 l/m² 0 min 0 min 106 W/m² 16,1 km/h (3 Bft) 97,87 %
16.02.2026 13:28 6,7 °C 6,1 °C 1,7 °C 91 % 994,6 hPa 0,0 l/m² 0 min 0 min 98 W/m² 22,5 km/h (4 Bft) 95,74 %
16.02.2026 13:30 6,6 °C 6,1 °C 1,7 °C 91 % 994,6 hPa 0,0 l/m² 0 min 0 min 92 W/m² 16,1 km/h (3 Bft) 97,87 %
16.02.2026 13:32 6,5 °C 6,1 °C 1,7 °C 91 % 994,6 hPa 0,0 l/m² 0 min 0 min 85 W/m² 12,9 km/h (3 Bft) 95,65 %
16.02.2026 13:34 6,5 °C 6,1 °C 1,7 °C 91 % 994,6 hPa 0,0 l/m² 0 min 0 min 81 W/m² 22,5 km/h (4 Bft) 93,62 %
16.02.2026 13:36 6,4 °C 6,1 °C 1,7 °C 91 % 994,5 hPa 0,0 l/m² 0 min 0 min 77 W/m² 12,9 km/h (3 Bft) 97,87 %
16.02.2026 13:38 6,4 °C 6,1 °C 1,7 °C 91 % 994,6 hPa 0,0 l/m² 0 min 0 min 72 W/m² 12,9 km/h (3 Bft) 95,74 %
16.02.2026 13:40 6,4 °C 6,1 °C 1,7 °C 91 % 994,6 hPa 0,0 l/m² 0 min 0 min 64 W/m² 19,3 km/h (3 Bft) 95,74 %
16.02.2026 13:42 6,3 °C 6,1 °C 1,7 °C 91 % 994,5 hPa 0,0 l/m² 0 min 0 min 55 W/m² 16,1 km/h (3 Bft) 97,87 %
16.02.2026 13:44 6,3 °C 6,1 °C 1,7 °C 91 % 994,5 hPa 0,0 l/m² 0 min 0 min 48 W/m² 9,7 km/h (2 Bft) 95,74 %
16.02.2026 13:46 6,3 °C 5,6 °C 1,7 °C 91 % 994,5 hPa 0,0 l/m² 0 min 0 min 38 W/m² 12,9 km/h (3 Bft) 95,74 %
16.02.2026 13:48 6,3 °C 5,6 °C 1,7 °C 91 % 994,5 hPa 0,0 l/m² 0 min 0 min 40 W/m² 12,9 km/h (3 Bft) 97,87 %
16.02.2026 13:50 6,2 °C 5,6 °C 1,7 °C 91 % 994,5 hPa 0,0 l/m² 0 min 0 min 43 W/m² 12,9 km/h (3 Bft) 100,00 %
16.02.2026 13:52 6,2 °C 5,6 °C 1,7 °C 91 % 994,5 hPa 0,0 l/m² 0 min 0 min 39 W/m² 19,3 km/h (3 Bft) 100,00 %
16.02.2026 13:54 6,2 °C 5,6 °C 1,7 °C 91 % 994,6 hPa 0,0 l/m² 0 min 0 min 35 W/m² 19,3 km/h (3 Bft) 100,00 %
16.02.2026 13:56 6,2 °C 5,6 °C 1,1 °C 91 % 994,6 hPa 0,0 l/m² 0 min 0 min 37 W/m² 22,5 km/h (4 Bft) 100,00 %
16.02.2026 13:58 6,1 °C 5,6 °C 1,1 °C 92 % 994,6 hPa 0,0 l/m² 0 min 0 min 51 W/m² 16,1 km/h (3 Bft) 100,00 %
16.02.2026 14:00 6,1 °C 5,6 °C 1,7 °C 92 % 994,5 hPa 0,0 l/m² 0 min 0 min 62 W/m² 16,1 km/h (3 Bft) 100,00 %
16.02.2026 14:02 6,1 °C 5,6 °C 1,7 °C 92 % 994,6 hPa 0,0 l/m² 0 min 0 min 88 W/m² 22,5 km/h (4 Bft) 100,00 %
16.02.2026 14:04 6,1 °C 6,1 °C 1,7 °C 92 % 994,5 hPa 0,0 l/m² 0 min 0 min 104 W/m² 6,4 km/h (2 Bft) 97,87 %
16.02.2026 14:06 6,1 °C 6,1 °C 1,7 °C 92 % 994,6 hPa 0,0 l/m² 0 min 0 min 91 W/m² 12,9 km/h (3 Bft) 100,00 %
16.02.2026 14:08 6,1 °C 6,1 °C 1,7 °C 92 % 994,5 hPa 0,0 l/m² 0 min 0 min 83 W/m² 19,3 km/h (3 Bft) 93,62 %
16.02.2026 14:10 6,1 °C 6,1 °C 1,7 °C 92 % 994,6 hPa 0,0 l/m² 0 min 0 min 89 W/m² 12,9 km/h (3 Bft) 97,87 %
16.02.2026 14:12 6,1 °C 6,1 °C 1,7 °C 92 % 994,6 hPa 0,0 l/m² 0 min 0 min 84 W/m² 6,4 km/h (2 Bft) 95,74 %
16.02.2026 14:14 6,2 °C 6,1 °C 1,7 °C 93 % 994,7 hPa 0,0 l/m² 0 min 0 min 57 W/m² 6,4 km/h (2 Bft) 97,87 %
16.02.2026 14:16 6,2 °C 6,1 °C 1,7 °C 93 % 994,6 hPa 0,0 l/m² 0 min 0 min 68 W/m² 9,7 km/h (2 Bft) 97,87 %
16.02.2026 14:18 6,2 °C 6,1 °C 1,7 °C 93 % 994,7 hPa 0,0 l/m² 0 min 0 min 75 W/m² 12,9 km/h (3 Bft) 97,14 %
16.02.2026 14:20 6,2 °C 6,1 °C 1,7 °C 93 % 994,8 hPa 0,0 l/m² 0 min 0 min 62 W/m² 16,1 km/h (3 Bft) 97,87 %
16.02.2026 14:22 6,3 °C 6,1 °C 1,7 °C 93 % 994,8 hPa 0,0 l/m² 0 min 0 min 41 W/m² 16,1 km/h (3 Bft) 95,74 %
16.02.2026 14:24 6,3 °C 5,6 °C 1,7 °C 93 % 994,8 hPa 0,2 l/m² 0 min 0 min 29 W/m² 16,1 km/h (3 Bft) 95,74 %
16.02.2026 14:26 6,3 °C 5,6 °C 1,7 °C 93 % 994,7 hPa 0,0 l/m² 0 min 0 min 37 W/m² 9,7 km/h (2 Bft) 97,83 %
16.02.2026 14:28 6,3 °C 5,6 °C 1,7 °C 93 % 994,6 hPa 0,2 l/m² 0 min 0 min 45 W/m² 12,9 km/h (3 Bft) 93,62 %
16.02.2026 14:30 6,3 °C 5,6 °C 1,7 °C 93 % 994,6 hPa 0,0 l/m² 0 min 2 min 50 W/m² 6,4 km/h (2 Bft) 97,87 %
16.02.2026 14:32 6,3 °C 5,6 °C 1,7 °C 94 % 994,6 hPa 0,0 l/m² 0 min 0 min 57 W/m² 6,4 km/h (2 Bft) 97,87 %
16.02.2026 14:34 6,3 °C 5,6 °C 1,7 °C 94 % 994,6 hPa 0,0 l/m² 0 min 0 min 39 W/m² 12,9 km/h (3 Bft) 97,87 %
16.02.2026 14:36 6,2 °C 5,6 °C 1,7 °C 94 % 994,6 hPa 0,0 l/m² 0 min 0 min 31 W/m² 9,7 km/h (2 Bft) 97,87 %
16.02.2026 14:38 6,2 °C 5,6 °C 1,7 °C 94 % 994,6 hPa 0,0 l/m² 0 min 0 min 37 W/m² 12,9 km/h (3 Bft) 93,62 %
16.02.2026 14:40 6,2 °C 5,6 °C 1,7 °C 94 % 994,6 hPa 0,0 l/m² 0 min 0 min 53 W/m² 12,9 km/h (3 Bft) 93,62 %
16.02.2026 14:42 6,2 °C 5,6 °C 1,7 °C 94 % 994,6 hPa 0,0 l/m² 0 min 0 min 57 W/m² 12,9 km/h (3 Bft) 93,62 %
16.02.2026 14:44 6,1 °C 5,6 °C 1,7 °C 94 % 994,6 hPa 0,0 l/m² 0 min 0 min 55 W/m² 19,3 km/h (3 Bft) 91,49 %
16.02.2026 14:46 6,1 °C 5,6 °C 1,1 °C 94 % 994,5 hPa 0,0 l/m² 0 min 0 min 70 W/m² 19,3 km/h (3 Bft) 93,62 %
16.02.2026 14:48 6,0 °C 5,6 °C 1,7 °C 94 % 994,5 hPa 0,0 l/m² 0 min 0 min 81 W/m² 12,9 km/h (3 Bft) 95,65 %
16.02.2026 14:50 6,0 °C 5,6 °C 1,7 °C 94 % 994,5 hPa 0,0 l/m² 0 min 0 min 82 W/m² 22,5 km/h (4 Bft) 95,74 %
16.02.2026 14:52 6,0 °C 5,6 °C 1,7 °C 94 % 994,5 hPa 0,0 l/m² 0 min 0 min 91 W/m² 16,1 km/h (3 Bft) 95,74 %
16.02.2026 14:54 5,9 °C 5,6 °C 1,7 °C 94 % 994,5 hPa 0,0 l/m² 0 min 0 min 94 W/m² 19,3 km/h (3 Bft) 95,74 %
16.02.2026 14:56 6,0 °C 5,6 °C 1,7 °C 94 % 994,5 hPa 0,0 l/m² 0 min 0 min 91 W/m² 9,7 km/h (2 Bft) 95,74 %
16.02.2026 14:58 6,0 °C 6,1 °C 1,7 °C 94 % 994,5 hPa 0,0 l/m² 0 min 0 min 116 W/m² 16,1 km/h (3 Bft) 95,74 %
16.02.2026 15:00 6,0 °C 6,1 °C 1,7 °C 94 % 994,4 hPa 0,0 l/m² 0 min 0 min 138 W/m² 12,9 km/h (3 Bft) 95,74 %
16.02.2026 15:02 6,1 °C 6,1 °C 1,7 °C 94 % 994,5 hPa 0,0 l/m² 0 min 0 min 157 W/m² 12,9 km/h (3 Bft) 89,36 %
16.02.2026 15:04 6,1 °C 6,7 °C 1,7 °C 95 % 994,4 hPa 0,0 l/m² 2 min 0 min 182 W/m² 12,9 km/h (3 Bft) 97,87 %
16.02.2026 15:06 6,1 °C 7,2 °C 1,7 °C 95 % 994,5 hPa 0,0 l/m² 2 min 0 min 223 W/m² 16,1 km/h (3 Bft) 94,92 %
16.02.2026 15:08 6,2 °C 8,3 °C 1,7 °C 95 % 994,5 hPa 0,0 l/m² 2 min 0 min 308 W/m² 19,3 km/h (3 Bft) 100,00 %
16.02.2026 15:10 6,3 °C 9,4 °C 2,2 °C 95 % 994,5 hPa 0,0 l/m² 2 min 0 min 354 W/m² 16,1 km/h (3 Bft) 100,00 %
16.02.2026 15:12 6,5 °C 10,6 °C 2,2 °C 95 % 994,5 hPa 0,0 l/m² 2 min 0 min 426 W/m² 19,3 km/h (3 Bft) 97,87 %
16.02.2026 15:14 6,6 °C 10,6 °C 2,2 °C 95 % 994,6 hPa 0,0 l/m² 2 min 0 min 392 W/m² 16,1 km/h (3 Bft) 100,00 %
16.02.2026 15:16 6,7 °C 10,0 °C 2,2 °C 96 % 994,6 hPa 0,0 l/m² 2 min 0 min 229 W/m² 9,7 km/h (2 Bft) 97,87 %
16.02.2026 15:18 6,8 °C 8,9 °C 2,2 °C 96 % 994,6 hPa 0,0 l/m² 0 min 0 min 154 W/m² 16,1 km/h (3 Bft) 100,00 %
16.02.2026 15:20 6,8 °C 7,8 °C 2,2 °C 95 % 994,7 hPa 0,0 l/m² 0 min 0 min 137 W/m² 9,7 km/h (2 Bft) 100,00 %
16.02.2026 15:22 6,8 °C 7,2 °C 2,2 °C 95 % 994,7 hPa 0,0 l/m² 0 min 0 min 118 W/m² 25,7 km/h (4 Bft) 100,00 %
16.02.2026 15:24 6,8 °C 7,2 °C 2,2 °C 95 % 994,8 hPa 0,0 l/m² 0 min 0 min 92 W/m² 16,1 km/h (3 Bft) 100,00 %
16.02.2026 15:26 6,8 °C 6,7 °C 2,2 °C 95 % 994,8 hPa 0,0 l/m² 0 min 0 min 77 W/m² 16,1 km/h (3 Bft) 97,87 %
16.02.2026 15:28 6,8 °C 6,7 °C 2,2 °C 95 % 994,8 hPa 0,0 l/m² 0 min 0 min 52 W/m² 6,4 km/h (2 Bft) 97,87 %
16.02.2026 15:30 6,7 °C 6,7 °C 2,2 °C 95 % 994,8 hPa 0,0 l/m² 0 min 0 min 37 W/m² 16,1 km/h (3 Bft) 100,00 %
16.02.2026 15:32 6,7 °C 6,7 °C 2,2 °C 95 % 994,8 hPa 0,0 l/m² 0 min 0 min 44 W/m² 16,1 km/h (3 Bft) 100,00 %
16.02.2026 15:34 6,7 °C 6,1 °C 1,7 °C 95 % 994,8 hPa 0,0 l/m² 0 min 0 min 44 W/m² 16,1 km/h (3 Bft) 100,00 %
16.02.2026 15:36 6,6 °C 6,1 °C 1,7 °C 95 % 994,8 hPa 0,0 l/m² 0 min 0 min 32 W/m² 16,1 km/h (3 Bft) 100,00 %
16.02.2026 15:38 6,6 °C 6,1 °C 1,7 °C 94 % 994,8 hPa 0,0 l/m² 0 min 0 min 27 W/m² 12,9 km/h (3 Bft) 97,87 %
16.02.2026 15:40 6,6 °C 6,1 °C 1,7 °C 94 % 994,7 hPa 0,0 l/m² 0 min 0 min 34 W/m² 12,9 km/h (3 Bft) 100,00 %
16.02.2026 15:42 6,6 °C 6,1 °C 1,7 °C 94 % 994,8 hPa 0,0 l/m² 0 min 0 min 21 W/m² 12,9 km/h (3 Bft) 97,87 %
16.02.2026 15:44 6,6 °C 6,1 °C 1,7 °C 94 % 994,7 hPa 0,0 l/m² 0 min 0 min 10 W/m² 9,7 km/h (2 Bft) 100,00 %
16.02.2026 15:46 6,6 °C 6,1 °C 1,7 °C 94 % 995,3 hPa 0,0 l/m² 0 min 0 min 2 W/m² 22,5 km/h (4 Bft) 100,00 %
16.02.2026 15:48 6,5 °C 5,0 °C 1,1 °C 94 % 995,6 hPa 0,2 l/m² 0 min 0 min 0 W/m² 29,0 km/h (5 Bft) 95,74 %
16.02.2026 15:50 6,0 °C 4,4 °C 0,6 °C 93 % 995,5 hPa 0,2 l/m² 0 min 2 min 0 W/m² 35,4 km/h (5 Bft) 97,87 %
16.02.2026 15:52 5,6 °C 3,9 °C 0,0 °C 93 % 995,6 hPa 0,2 l/m² 0 min 2 min 0 W/m² 19,3 km/h (3 Bft) 97,87 %
16.02.2026 15:54 5,2 °C 3,9 °C 0,0 °C 92 % 995,6 hPa 0,2 l/m² 0 min 2 min 1 W/m² 22,5 km/h (4 Bft) 97,87 %
16.02.2026 15:56 4,8 °C 3,3 °C 0,0 °C 92 % 995,6 hPa 0,2 l/m² 0 min 2 min 6 W/m² 19,3 km/h (3 Bft) 97,87 %
16.02.2026 15:58 4,6 °C 3,3 °C 0,0 °C 92 % 995,6 hPa 0,0 l/m² 0 min 2 min 8 W/m² 12,9 km/h (3 Bft) 97,87 %
16.02.2026 16:00 4,4 °C 3,3 °C -0,6 °C 92 % 995,5 hPa 0,2 l/m² 0 min 0 min 15 W/m² 16,1 km/h (3 Bft) 97,87 %
16.02.2026 16:02 4,3 °C 3,3 °C 0,0 °C 93 % 995,5 hPa 0,0 l/m² 0 min 2 min 27 W/m² 6,4 km/h (2 Bft) 97,83 %
16.02.2026 16:04 4,3 °C 3,3 °C 0,0 °C 93 % 995,5 hPa 0,0 l/m² 0 min 0 min 37 W/m² 6,4 km/h (2 Bft) 97,92 %
16.02.2026 16:06 4,2 °C 3,3 °C 0,0 °C 93 % 995,5 hPa 0,0 l/m² 0 min 0 min 50 W/m² 3,2 km/h (1 Bft) 97,87 %
16.02.2026 16:08 4,2 °C 3,3 °C 0,0 °C 93 % 995,5 hPa 0,2 l/m² 0 min 0 min 56 W/m² 6,4 km/h (2 Bft) 97,87 %
16.02.2026 16:10 4,2 °C 3,3 °C 0,0 °C 93 % 995,5 hPa 0,0 l/m² 0 min 0 min 56 W/m² 6,4 km/h (2 Bft) 97,14 %
16.02.2026 16:12 4,2 °C 3,9 °C 0,0 °C 94 % 995,5 hPa 0,0 l/m² 0 min 0 min 57 W/m² 3,2 km/h (1 Bft) 95,74 %
16.02.2026 16:14 4,2 °C 3,9 °C 0,0 °C 94 % 995,5 hPa 0,0 l/m² 0 min 0 min 64 W/m² 6,4 km/h (2 Bft) 97,87 %
16.02.2026 16:16 4,2 °C 3,9 °C 0,0 °C 94 % 995,5 hPa 0,0 l/m² 0 min 0 min 70 W/m² 12,9 km/h (3 Bft) 95,74 %
16.02.2026 16:18 4,2 °C 3,9 °C 0,0 °C 94 % 995,5 hPa 0,0 l/m² 0 min 0 min 52 W/m² 6,4 km/h (2 Bft) 97,87 %
16.02.2026 16:20 4,2 °C 3,9 °C 0,0 °C 94 % 995,5 hPa 0,0 l/m² 0 min 0 min 26 W/m² 6,4 km/h (2 Bft) 95,74 %
16.02.2026 16:22 4,2 °C 3,9 °C 0,0 °C 94 % 995,5 hPa 0,0 l/m² 0 min 0 min 17 W/m² 6,4 km/h (2 Bft) 97,87 %
16.02.2026 16:24 4,3 °C 3,9 °C 0,0 °C 94 % 995,5 hPa 0,0 l/m² 0 min 0 min 13 W/m² 12,9 km/h (3 Bft) 95,74 %
16.02.2026 16:26 4,3 °C 3,9 °C 0,0 °C 94 % 995,6 hPa 0,0 l/m² 0 min 0 min 11 W/m² 9,7 km/h (2 Bft) 93,62 %
16.02.2026 16:28 4,3 °C 3,9 °C 0,0 °C 94 % 995,7 hPa 0,0 l/m² 0 min 0 min 11 W/m² 6,4 km/h (2 Bft) 97,87 %
16.02.2026 16:30 4,3 °C 3,9 °C 0,0 °C 94 % 995,8 hPa 0,0 l/m² 0 min 0 min 10 W/m² 9,7 km/h (2 Bft) 97,83 %
16.02.2026 16:32 4,3 °C 3,9 °C 0,0 °C 94 % 995,8 hPa 0,2 l/m² 0 min 0 min 11 W/m² 12,9 km/h (3 Bft) 97,87 %
16.02.2026 16:34 4,3 °C 3,9 °C 0,0 °C 95 % 995,8 hPa 0,2 l/m² 0 min 0 min 14 W/m² 9,7 km/h (2 Bft) 97,87 %
16.02.2026 16:36 4,3 °C 3,9 °C 0,0 °C 95 % 995,6 hPa 0,0 l/m² 0 min 0 min 25 W/m² 9,7 km/h (2 Bft) 95,74 %
16.02.2026 16:38 4,3 °C 3,9 °C 0,0 °C 95 % 995,5 hPa 0,0 l/m² 0 min 0 min 31 W/m² 3,2 km/h (1 Bft) 97,87 %
16.02.2026 16:40 4,3 °C 3,9 °C 0,0 °C 95 % 995,6 hPa 0,0 l/m² 0 min 0 min 31 W/m² 6,4 km/h (2 Bft) 97,87 %
16.02.2026 16:42 4,3 °C 3,9 °C 0,0 °C 95 % 995,6 hPa 0,0 l/m² 0 min 0 min 31 W/m² 0,0 km/h (0 Bft) 93,62 %
16.02.2026 16:44 4,3 °C 3,9 °C 0,0 °C 95 % 995,5 hPa 0,0 l/m² 0 min 0 min 32 W/m² 6,4 km/h (2 Bft) 95,74 %
16.02.2026 16:46 4,3 °C 3,9 °C 0,0 °C 95 % 995,5 hPa 0,0 l/m² 0 min 0 min 33 W/m² 3,2 km/h (1 Bft) 95,74 %
16.02.2026 16:48 4,3 °C 3,9 °C 0,0 °C 95 % 995,5 hPa 0,0 l/m² 0 min 0 min 37 W/m² 0,0 km/h (0 Bft) 97,87 %
16.02.2026 16:50 4,3 °C 3,9 °C 0,0 °C 95 % 995,6 hPa 0,0 l/m² 0 min 0 min 44 W/m² 0,0 km/h (0 Bft) 97,87 %
16.02.2026 16:52 4,3 °C 3,9 °C 0,0 °C 95 % 995,6 hPa 0,0 l/m² 0 min 0 min 59 W/m² 0,0 km/h (0 Bft) 93,62 %
16.02.2026 16:54 4,3 °C 4,4 °C 0,6 °C 95 % 995,6 hPa 0,0 l/m² 2 min 0 min 68 W/m² 0,0 km/h (0 Bft) 95,74 %
16.02.2026 16:56 4,4 °C 4,4 °C 0,6 °C 95 % 995,7 hPa 0,2 l/m² 2 min 0 min 64 W/m² 0,0 km/h (0 Bft) 100,00 %
16.02.2026 16:58 4,4 °C 4,4 °C 0,6 °C 95 % 995,7 hPa 0,0 l/m² 0 min 0 min 49 W/m² 0,0 km/h (0 Bft) 97,87 %
16.02.2026 17:00 4,4 °C 4,4 °C 0,6 °C 95 % 995,7 hPa 0,0 l/m² 0 min 0 min 34 W/m² 0,0 km/h (0 Bft) 100,00 %
16.02.2026 17:02 4,5 °C 4,4 °C 0,6 °C 95 % 995,7 hPa 0,0 l/m² 0 min 0 min 29 W/m² 0,0 km/h (0 Bft) 100,00 %
16.02.2026 17:04 4,5 °C 4,4 °C 0,6 °C 95 % 995,8 hPa 0,0 l/m² 0 min 0 min 33 W/m² 0,0 km/h (0 Bft) 100,00 %
16.02.2026 17:06 4,6 °C 4,4 °C 0,6 °C 95 % 995,7 hPa 0,0 l/m² 0 min 0 min 36 W/m² 0,0 km/h (0 Bft) 100,00 %
16.02.2026 17:08 4,6 °C 4,4 °C 0,6 °C 96 % 995,7 hPa 0,0 l/m² 0 min 0 min 27 W/m² 0,0 km/h (0 Bft) 97,87 %
16.02.2026 17:10 4,6 °C 3,9 °C 0,6 °C 96 % 995,7 hPa 0,0 l/m² 0 min 0 min 23 W/m² 0,0 km/h (0 Bft) 98,15 %
16.02.2026 17:12 4,6 °C 3,9 °C 0,0 °C 96 % 995,8 hPa 0,0 l/m² 0 min 0 min 18 W/m² 0,0 km/h (0 Bft) 100,00 %
16.02.2026 17:14 4,6 °C 3,9 °C 0,0 °C 96 % 995,8 hPa 0,0 l/m² 0 min 0 min 13 W/m² 0,0 km/h (0 Bft) 100,00 %
16.02.2026 17:16 4,6 °C 3,9 °C 0,0 °C 96 % 995,8 hPa 0,0 l/m² 0 min 0 min 11 W/m² 0,0 km/h (0 Bft) 100,00 %
16.02.2026 17:18 4,6 °C 3,9 °C 0,0 °C 96 % 995,9 hPa 0,0 l/m² 0 min 0 min 11 W/m² 0,0 km/h (0 Bft) 97,87 %
16.02.2026 17:20 4,6 °C 3,9 °C 0,0 °C 96 % 995,9 hPa 0,0 l/m² 0 min 0 min 11 W/m² 0,0 km/h (0 Bft) 97,87 %
16.02.2026 17:22 4,6 °C 3,9 °C 0,0 °C 96 % 995,9 hPa 0,0 l/m² 0 min 0 min 12 W/m² 0,0 km/h (0 Bft) 95,74 %
16.02.2026 17:24 4,5 °C 3,9 °C 0,0 °C 96 % 995,8 hPa 0,0 l/m² 0 min 0 min 11 W/m² 0,0 km/h (0 Bft) 100,00 %
16.02.2026 17:26 4,5 °C 3,9 °C 0,0 °C 96 % 995,9 hPa 0,0 l/m² 0 min 0 min 10 W/m² 0,0 km/h (0 Bft) 95,74 %
16.02.2026 17:28 4,5 °C 3,9 °C 0,0 °C 96 % 995,8 hPa 0,0 l/m² 0 min 0 min 8 W/m² 0,0 km/h (0 Bft) 97,87 %
16.02.2026 17:30 4,5 °C 3,9 °C 0,0 °C 96 % 995,9 hPa 0,0 l/m² 0 min 0 min 7 W/m² 0,0 km/h (0 Bft) 97,87 %
16.02.2026 17:32 4,4 °C 3,9 °C 0,0 °C 96 % 996,0 hPa 0,0 l/m² 0 min 0 min 7 W/m² 0,0 km/h (0 Bft) 97,83 %
16.02.2026 17:34 4,4 °C 3,9 °C 0,0 °C 96 % 996,0 hPa 0,0 l/m² 0 min 0 min 7 W/m² 0,0 km/h (0 Bft) 95,74 %
16.02.2026 17:36 4,4 °C 3,9 °C 0,0 °C 96 % 996,0 hPa 0,0 l/m² 0 min 0 min 7 W/m² 0,0 km/h (0 Bft) 97,87 %
16.02.2026 17:38 4,4 °C 3,9 °C 0,0 °C 96 % 996,0 hPa 0,0 l/m² 0 min 0 min 7 W/m² 0,0 km/h (0 Bft) 97,37 %
16.02.2026 17:40 4,4 °C 3,9 °C 0,0 °C 96 % 996,0 hPa 0,0 l/m² 0 min 0 min 7 W/m² 0,0 km/h (0 Bft) 97,87 %
16.02.2026 17:42 4,4 °C 3,3 °C 0,0 °C 96 % 996,0 hPa 0,0 l/m² 0 min 0 min 7 W/m² 0,0 km/h (0 Bft) 97,96 %
16.02.2026 17:44 4,4 °C 3,3 °C 0,0 °C 96 % 996,0 hPa 0,0 l/m² 0 min 0 min 6 W/m² 0,0 km/h (0 Bft) 97,87 %
16.02.2026 17:46 4,3 °C 3,3 °C 0,0 °C 96 % 996,1 hPa 0,0 l/m² 0 min 0 min 5 W/m² 0,0 km/h (0 Bft) 97,87 %
16.02.2026 17:48 4,3 °C 3,3 °C 0,0 °C 96 % 996,1 hPa 0,0 l/m² 0 min 0 min 2 W/m² 0,0 km/h (0 Bft) 97,87 %
16.02.2026 17:50 4,3 °C 3,3 °C 0,0 °C 96 % 996,1 hPa 0,0 l/m² 0 min 0 min 0 W/m² 0,0 km/h (0 Bft) 97,87 %
16.02.2026 17:52 4,3 °C 3,3 °C 0,0 °C 96 % 996,1 hPa 0,0 l/m² 0 min 0 min 0 W/m² 0,0 km/h (0 Bft) 97,87 %
16.02.2026 17:54 4,3 °C 3,3 °C 0,0 °C 96 % 996,2 hPa 0,0 l/m² 0 min 0 min 0 W/m² 0,0 km/h (0 Bft) 74,47 %
16.02.2026 17:56 4,3 °C 3,3 °C 0,0 °C 96 % 996,3 hPa 0,0 l/m² 0 min 0 min 0 W/m² 0,0 km/h (0 Bft) 97,87 %
16.02.2026 17:58 4,3 °C 3,3 °C 0,0 °C 96 % 996,3 hPa 0,0 l/m² 0 min 0 min 0 W/m² 0,0 km/h (0 Bft) 97,87 %
16.02.2026 18:00 4,3 °C 3,3 °C 0,0 °C 96 % 996,2 hPa 0,0 l/m² 0 min 0 min 0 W/m² 0,0 km/h (0 Bft) 97,87 %
16.02.2026 18:02 4,3 °C 3,3 °C 0,0 °C 96 % 996,3 hPa 0,0 l/m² 0 min 0 min 0 W/m² 0,0 km/h (0 Bft) 97,83 %
16.02.2026 18:04 4,3 °C 3,3 °C 0,0 °C 96 % 996,2 hPa 0,0 l/m² 0 min 0 min 0 W/m² 0,0 km/h (0 Bft) 95,83 %
16.02.2026 18:07 4,2 °C 3,3 °C 0,0 °C 96 % 996,3 hPa 0,0 l/m² 0 min 0 min 0 W/m² 0,0 km/h (0 Bft) 93,06 %
16.02.2026 18:08 4,2 °C 3,3 °C 0,0 °C 96 % 996,3 hPa 0,0 l/m² 0 min 0 min 0 W/m² 0,0 km/h (0 Bft) 100,00 %
16.02.2026 18:12 4,2 °C 3,3 °C 0,0 °C 96 % 996,3 hPa 0,0 l/m² 0 min 0 min 0 W/m² 0,0 km/h (0 Bft) 96,43 %
16.02.2026 18:14 4,2 °C 3,3 °C 0,0 °C 96 % 996,4 hPa 0,0 l/m² 0 min 0 min 0 W/m² 0,0 km/h (0 Bft) 92,00 %
16.02.2026 18:16 4,2 °C 3,3 °C 0,0 °C 96 % 996,4 hPa 0,0 l/m² 0 min 0 min 0 W/m² 0,0 km/h (0 Bft) 93,62 %
16.02.2026 18:18 4,2 °C 3,3 °C 0,0 °C 96 % 996,4 hPa 0,0 l/m² 0 min 0 min 0 W/m² 0,0 km/h (0 Bft) 95,74 %
16.02.2026 18:20 4,1 °C 3,3 °C 0,0 °C 96 % 996,4 hPa 0,0 l/m² 0 min 0 min 0 W/m² 0,0 km/h (0 Bft) 93,48 %
16.02.2026 18:22 4,1 °C 3,3 °C 0,0 °C 96 % 996,5 hPa 0,0 l/m² 0 min 0 min 0 W/m² 0,0 km/h (0 Bft) 93,62 %
16.02.2026 18:24 4,1 °C 3,3 °C 0,0 °C 96 % 996,5 hPa 0,0 l/m² 0 min 0 min 0 W/m² 0,0 km/h (0 Bft) 95,74 %
16.02.2026 18:26 4,1 °C 3,3 °C 0,0 °C 96 % 996,6 hPa 0,0 l/m² 0 min 0 min 0 W/m² 6,4 km/h (2 Bft) 95,74 %
16.02.2026 18:28 4,1 °C 3,3 °C 0,0 °C 96 % 996,6 hPa 0,0 l/m² 0 min 0 min 0 W/m² 3,2 km/h (1 Bft) 93,62 %
16.02.2026 18:30 4,1 °C 3,3 °C 0,0 °C 96 % 996,6 hPa 0,0 l/m² 0 min 0 min 0 W/m² 3,2 km/h (1 Bft) 95,74 %
16.02.2026 18:32 4,1 °C 3,3 °C 0,0 °C 96 % 996,6 hPa 0,0 l/m² 0 min 0 min 0 W/m² 6,4 km/h (2 Bft) 93,62 %
16.02.2026 18:34 4,1 °C 3,3 °C 0,0 °C 96 % 996,6 hPa 0,0 l/m² 0 min 0 min 0 W/m² 3,2 km/h (1 Bft) 93,62 %
16.02.2026 18:36 4,1 °C 3,3 °C 0,0 °C 96 % 996,6 hPa 0,0 l/m² 0 min 0 min 0 W/m² 6,4 km/h (2 Bft) 93,62 %
16.02.2026 18:38 4,1 °C 3,3 °C 0,0 °C 96 % 996,7 hPa 0,0 l/m² 0 min 0 min 0 W/m² 3,2 km/h (1 Bft) 91,49 %
16.02.2026 18:40 4,1 °C 3,3 °C 0,0 °C 96 % 996,7 hPa 0,0 l/m² 0 min 0 min 0 W/m² 3,2 km/h (1 Bft) 95,74 %
16.02.2026 18:42 4,1 °C 3,3 °C 0,0 °C 96 % 996,8 hPa 0,0 l/m² 0 min 0 min 0 W/m² 6,4 km/h (2 Bft) 93,62 %
16.02.2026 18:44 4,1 °C 3,3 °C -0,6 °C 96 % 996,9 hPa 0,0 l/m² 0 min 0 min 0 W/m² 6,4 km/h (2 Bft) 97,87 %
16.02.2026 18:46 4,1 °C 3,3 °C -0,6 °C 96 % 996,9 hPa 0,0 l/m² 0 min 0 min 0 W/m² 3,2 km/h (1 Bft) 97,87 %
16.02.2026 18:48 4,0 °C 3,3 °C -0,6 °C 96 % 996,9 hPa 0,0 l/m² 0 min 0 min 0 W/m² 3,2 km/h (1 Bft) 95,65 %
16.02.2026 18:50 4,0 °C 3,3 °C -0,6 °C 96 % 997,0 hPa 0,0 l/m² 0 min 0 min 0 W/m² 3,2 km/h (1 Bft) 97,87 %
16.02.2026 18:52 4,0 °C 3,3 °C -0,6 °C 96 % 997,0 hPa 0,0 l/m² 0 min 0 min 0 W/m² 3,2 km/h (1 Bft) 97,87 %
16.02.2026 18:54 3,9 °C 3,3 °C -0,6 °C 96 % 996,9 hPa 0,0 l/m² 0 min 0 min 0 W/m² 3,2 km/h (1 Bft) 97,87 %
16.02.2026 18:56 3,9 °C 3,3 °C -0,6 °C 96 % 997,0 hPa 0,0 l/m² 0 min 0 min 0 W/m² 3,2 km/h (1 Bft) 100,00 %
16.02.2026 18:58 3,9 °C 3,3 °C -0,6 °C 96 % 997,0 hPa 0,0 l/m² 0 min 0 min 0 W/m² 6,4 km/h (2 Bft) 100,00 %
16.02.2026 19:00 3,9 °C 3,3 °C -0,6 °C 96 % 997,0 hPa 0,0 l/m² 0 min 0 min 0 W/m² 6,4 km/h (2 Bft) 100,00 %
16.02.2026 19:02 3,9 °C 3,3 °C 0,0 °C 96 % 997,0 hPa 0,0 l/m² 0 min 0 min 0 W/m² 0,0 km/h (0 Bft) 100,00 %
16.02.2026 19:04 3,9 °C 3,3 °C 0,0 °C 96 % 997,0 hPa 0,0 l/m² 0 min 0 min 0 W/m² 6,4 km/h (2 Bft) 97,87 %
16.02.2026 19:06 3,9 °C 3,3 °C 0,0 °C 96 % 997,0 hPa 0,0 l/m² 0 min 0 min 0 W/m² 3,2 km/h (1 Bft) 100,00 %
16.02.2026 19:08 3,9 °C 3,3 °C 0,0 °C 96 % 997,0 hPa 0,0 l/m² 0 min 0 min 0 W/m² 9,7 km/h (2 Bft) 100,00 %
16.02.2026 19:10 3,9 °C 3,3 °C 0,0 °C 96 % 997,0 hPa 0,0 l/m² 0 min 0 min 0 W/m² 6,4 km/h (2 Bft) 97,87 %
16.02.2026 19:12 3,9 °C 3,3 °C 0,0 °C 96 % 997,1 hPa 0,0 l/m² 0 min 0 min 0 W/m² 6,4 km/h (2 Bft) 100,00 %
16.02.2026 19:14 3,9 °C 3,3 °C 0,0 °C 96 % 997,1 hPa 0,0 l/m² 0 min 0 min 0 W/m² 6,4 km/h (2 Bft) 100,00 %
16.02.2026 19:16 3,9 °C 3,3 °C 0,0 °C 96 % 997,1 hPa 0,0 l/m² 0 min 0 min 0 W/m² 6,4 km/h (2 Bft) 100,00 %
16.02.2026 19:18 4,0 °C 3,3 °C 0,0 °C 96 % 997,1 hPa 0,0 l/m² 0 min 0 min 0 W/m² 3,2 km/h (1 Bft) 97,87 %
16.02.2026 19:20 4,0 °C 3,3 °C 0,0 °C 96 % 997,2 hPa 0,0 l/m² 0 min 0 min 0 W/m² 0,0 km/h (0 Bft) 97,87 %
16.02.2026 19:22 4,0 °C 3,3 °C 0,0 °C 96 % 997,2 hPa 0,2 l/m² 0 min 0 min 0 W/m² 0,0 km/h (0 Bft) 100,00 %
16.02.2026 19:24 4,0 °C 3,3 °C 0,0 °C 96 % 997,2 hPa 0,0 l/m² 0 min 0 min 0 W/m² 3,2 km/h (1 Bft) 100,00 %
16.02.2026 19:26 4,0 °C 3,3 °C 0,0 °C 96 % 997,2 hPa 0,0 l/m² 0 min 0 min 0 W/m² 0,0 km/h (0 Bft) 95,74 %
16.02.2026 19:28 4,0 °C 3,3 °C 0,0 °C 96 % 997,3 hPa 0,0 l/m² 0 min 0 min 0 W/m² 0,0 km/h (0 Bft) 100,00 %
16.02.2026 19:30 4,0 °C 3,3 °C 0,0 °C 96 % 997,3 hPa 0,0 l/m² 0 min 0 min 0 W/m² 3,2 km/h (1 Bft) 100,00 %
16.02.2026 19:32 4,1 °C 3,3 °C 0,0 °C 96 % 997,3 hPa 0,0 l/m² 0 min 0 min 0 W/m² 3,2 km/h (1 Bft) 100,00 %
16.02.2026 19:34 4,1 °C 3,3 °C 0,0 °C 96 % 997,3 hPa 0,0 l/m² 0 min 0 min 0 W/m² 3,2 km/h (1 Bft) 100,00 %
16.02.2026 19:36 4,1 °C 3,3 °C 0,0 °C 96 % 997,3 hPa 0,0 l/m² 0 min 0 min 0 W/m² 3,2 km/h (1 Bft) 97,87 %
16.02.2026 19:38 4,1 °C 3,3 °C 0,0 °C 97 % 997,3 hPa 0,0 l/m² 0 min 0 min 0 W/m² 6,4 km/h (2 Bft) 100,00 %
16.02.2026 19:40 4,1 °C 3,3 °C 0,0 °C 97 % 997,3 hPa 0,0 l/m² 0 min 0 min 0 W/m² 3,2 km/h (1 Bft) 97,83 %
16.02.2026 19:42 4,1 °C 3,3 °C 0,0 °C 97 % 997,2 hPa 0,0 l/m² 0 min 0 min 0 W/m² 6,4 km/h (2 Bft) 100,00 %
16.02.2026 19:44 4,1 °C 3,3 °C 0,0 °C 97 % 997,2 hPa 0,0 l/m² 0 min 0 min 0 W/m² 3,2 km/h (1 Bft) 100,00 %
16.02.2026 19:46 4,1 °C 3,3 °C 0,0 °C 97 % 997,2 hPa 0,0 l/m² 0 min 0 min 0 W/m² 3,2 km/h (1 Bft) 100,00 %
16.02.2026 19:48 4,1 °C 3,3 °C 0,0 °C 97 % 997,2 hPa 0,2 l/m² 0 min 0 min 0 W/m² 3,2 km/h (1 Bft) 93,62 %
16.02.2026 19:50 4,1 °C 3,3 °C 0,0 °C 97 % 997,2 hPa 0,0 l/m² 0 min 0 min 0 W/m² 3,2 km/h (1 Bft) 100,00 %
16.02.2026 19:52 4,2 °C 3,9 °C 0,0 °C 97 % 997,3 hPa 0,0 l/m² 0 min 0 min 0 W/m² 6,4 km/h (2 Bft) 97,87 %
16.02.2026 19:54 4,2 °C 3,9 °C 0,0 °C 97 % 997,3 hPa 0,0 l/m² 0 min 0 min 0 W/m² 6,4 km/h (2 Bft) 100,00 %
16.02.2026 19:56 4,2 °C 3,9 °C 0,0 °C 97 % 997,3 hPa 0,0 l/m² 0 min 0 min 0 W/m² 6,4 km/h (2 Bft) 97,87 %
16.02.2026 19:58 4,2 °C 3,9 °C 0,0 °C 97 % 997,3 hPa 0,0 l/m² 0 min 0 min 0 W/m² 3,2 km/h (1 Bft) 100,00 %
16.02.2026 20:00 4,2 °C 3,9 °C 0,0 °C 97 % 997,3 hPa 0,0 l/m² 0 min 0 min 0 W/m² 6,4 km/h (2 Bft) 100,00 %
16.02.2026 20:02 4,2 °C 3,9 °C 0,0 °C 97 % 997,3 hPa 0,0 l/m² 0 min 0 min 0 W/m² 3,2 km/h (1 Bft) 97,83 %
16.02.2026 20:04 4,2 °C 3,9 °C 0,0 °C 97 % 997,3 hPa 0,2 l/m² 0 min 0 min 0 W/m² 3,2 km/h (1 Bft) 97,87 %
16.02.2026 20:06 4,2 °C 3,9 °C 0,0 °C 97 % 997,3 hPa 0,0 l/m² 0 min 0 min 0 W/m² 3,2 km/h (1 Bft) 98,33 %
16.02.2026 20:08 4,2 °C 3,9 °C 0,0 °C 97 % 997,3 hPa 0,0 l/m² 0 min 0 min 0 W/m² 6,4 km/h (2 Bft) 97,22 %
16.02.2026 20:10 4,2 °C 3,9 °C 0,0 °C 97 % 997,3 hPa 0,0 l/m² 0 min 0 min 0 W/m² 6,4 km/h (2 Bft) 97,87 %
16.02.2026 20:12 4,2 °C 3,9 °C 0,0 °C 97 % 997,3 hPa 0,0 l/m² 0 min 0 min 0 W/m² 6,4 km/h (2 Bft) 97,87 %
16.02.2026 20:14 4,2 °C 3,9 °C 0,0 °C 97 % 997,4 hPa 0,0 l/m² 0 min 0 min 0 W/m² 3,2 km/h (1 Bft) 97,87 %
16.02.2026 20:16 4,3 °C 3,9 °C 0,0 °C 97 % 997,4 hPa 0,0 l/m² 0 min 0 min 0 W/m² 6,4 km/h (2 Bft) 97,87 %
16.02.2026 20:18 4,3 °C 3,9 °C 0,0 °C 97 % 997,4 hPa 0,2 l/m² 0 min 0 min 0 W/m² 6,4 km/h (2 Bft) 97,87 %
16.02.2026 20:20 4,3 °C 3,9 °C 0,0 °C 97 % 997,4 hPa 0,0 l/m² 0 min 2 min 0 W/m² 3,2 km/h (1 Bft) 97,87 %
16.02.2026 20:22 4,3 °C 3,9 °C 0,0 °C 97 % 997,4 hPa 0,0 l/m² 0 min 2 min 0 W/m² 3,2 km/h (1 Bft) 95,74 %
16.02.2026 20:24 4,3 °C 3,9 °C 0,0 °C 97 % 997,4 hPa 0,0 l/m² 0 min 0 min 0 W/m² 6,4 km/h (2 Bft) 97,87 %
16.02.2026 20:26 4,3 °C 3,9 °C 0,0 °C 97 % 997,4 hPa 0,0 l/m² 0 min 0 min 0 W/m² 6,4 km/h (2 Bft) 95,65 %
16.02.2026 20:28 4,3 °C 3,9 °C 0,0 °C 97 % 997,4 hPa 0,0 l/m² 0 min 0 min 0 W/m² 12,9 km/h (3 Bft) 91,49 %
16.02.2026 20:30 4,3 °C 3,9 °C 0,0 °C 97 % 997,5 hPa 0,2 l/m² 0 min 0 min 0 W/m² 12,9 km/h (3 Bft) 97,87 %
16.02.2026 20:32 4,3 °C 3,3 °C 0,0 °C 97 % 997,5 hPa 0,0 l/m² 0 min 0 min 0 W/m² 9,7 km/h (2 Bft) 97,87 %
16.02.2026 20:34 4,3 °C 3,3 °C 0,0 °C 97 % 997,5 hPa 0,0 l/m² 0 min 0 min 0 W/m² 12,9 km/h (3 Bft) 100,00 %
16.02.2026 20:36 4,2 °C 3,3 °C 0,0 °C 97 % 997,6 hPa 0,2 l/m² 0 min 0 min 0 W/m² 12,9 km/h (3 Bft) 100,00 %
16.02.2026 20:38 4,2 °C 3,3 °C 0,0 °C 97 % 997,5 hPa 0,2 l/m² 0 min 0 min 0 W/m² 9,7 km/h (2 Bft) 93,62 %
16.02.2026 20:40 4,2 °C 3,3 °C 0,0 °C 97 % 997,6 hPa 0,0 l/m² 0 min 2 min 0 W/m² 6,4 km/h (2 Bft) 93,62 %
16.02.2026 20:42 4,2 °C 3,3 °C 0,0 °C 97 % 997,6 hPa 0,2 l/m² 0 min 2 min 0 W/m² 6,4 km/h (2 Bft) 97,87 %
16.02.2026 20:44 4,1 °C 3,3 °C 0,0 °C 97 % 997,6 hPa 0,0 l/m² 0 min 2 min 0 W/m² 12,9 km/h (3 Bft) 95,74 %
16.02.2026 20:46 4,1 °C 3,3 °C 0,0 °C 97 % 997,6 hPa 0,2 l/m² 0 min 0 min 0 W/m² 12,9 km/h (3 Bft) 93,62 %
16.02.2026 20:48 4,1 °C 3,3 °C 0,0 °C 97 % 997,6 hPa 0,0 l/m² 0 min 2 min 0 W/m² 12,9 km/h (3 Bft) 93,48 %
16.02.2026 20:50 4,0 °C 3,3 °C 0,0 °C 97 % 997,7 hPa 0,2 l/m² 0 min 2 min 0 W/m² 16,1 km/h (3 Bft) 93,62 %
16.02.2026 20:52 4,0 °C 3,3 °C 0,0 °C 97 % 997,7 hPa 0,2 l/m² 0 min 0 min 0 W/m² 12,9 km/h (3 Bft) 93,62 %
16.02.2026 20:54 3,9 °C 3,3 °C 0,0 °C 97 % 997,7 hPa 0,2 l/m² 0 min 2 min 0 W/m² 16,1 km/h (3 Bft) 95,74 %
16.02.2026 20:56 3,9 °C 3,3 °C 0,0 °C 97 % 997,7 hPa 0,2 l/m² 0 min 0 min 0 W/m² 12,9 km/h (3 Bft) 95,74 %
16.02.2026 20:58 3,8 °C 2,8 °C 0,0 °C 97 % 997,7 hPa 0,0 l/m² 0 min 0 min 0 W/m² 9,7 km/h (2 Bft) 95,74 %
16.02.2026 21:00 3,8 °C 2,8 °C -0,6 °C 97 % 997,6 hPa 0,2 l/m² 0 min 2 min 0 W/m² 16,1 km/h (3 Bft) 93,62 %
16.02.2026 21:02 3,8 °C 2,8 °C -0,6 °C 97 % 997,6 hPa 0,0 l/m² 0 min 2 min 0 W/m² 9,7 km/h (2 Bft) 95,74 %
16.02.2026 21:04 3,8 °C 2,8 °C -0,6 °C 97 % 997,7 hPa 0,0 l/m² 0 min 0 min 0 W/m² 6,4 km/h (2 Bft) 91,49 %
16.02.2026 21:06 3,7 °C 2,8 °C -0,6 °C 97 % 997,7 hPa 0,2 l/m² 0 min 0 min 0 W/m² 16,1 km/h (3 Bft) 93,62 %
16.02.2026 21:08 3,7 °C 2,8 °C -0,6 °C 97 % 997,7 hPa 0,0 l/m² 0 min 0 min 0 W/m² 6,4 km/h (2 Bft) 95,83 %
16.02.2026 21:10 3,7 °C 2,8 °C -0,6 °C 97 % 997,8 hPa 0,0 l/m² 0 min 0 min 0 W/m² 3,2 km/h (1 Bft) 95,65 %
16.02.2026 21:12 3,7 °C 2,8 °C -0,6 °C 97 % 997,8 hPa 0,0 l/m² 0 min 0 min 0 W/m² 6,4 km/h (2 Bft) 95,74 %
16.02.2026 21:14 3,7 °C 2,8 °C -0,6 °C 97 % 997,8 hPa 0,0 l/m² 0 min 2 min 0 W/m² 9,7 km/h (2 Bft) 95,74 %
16.02.2026 21:16 3,7 °C 2,8 °C -0,6 °C 97 % 997,8 hPa 0,0 l/m² 0 min 0 min 0 W/m² 9,7 km/h (2 Bft) 95,74 %
16.02.2026 21:18 3,7 °C 2,8 °C -0,6 °C 97 % 997,8 hPa 0,0 l/m² 0 min 2 min 0 W/m² 12,9 km/h (3 Bft) 95,74 %
16.02.2026 21:20 3,7 °C 2,8 °C -0,6 °C 97 % 997,8 hPa 0,0 l/m² 0 min 2 min 0 W/m² 6,4 km/h (2 Bft) 93,62 %
16.02.2026 21:22 3,7 °C 2,8 °C -0,6 °C 97 % 997,8 hPa 0,0 l/m² 0 min 2 min 0 W/m² 9,7 km/h (2 Bft) 97,87 %
16.02.2026 21:24 3,6 °C 2,8 °C -0,6 °C 97 % 997,8 hPa 0,0 l/m² 0 min 0 min 0 W/m² 12,9 km/h (3 Bft) 97,87 %
16.02.2026 21:26 3,6 °C 2,8 °C -0,6 °C 97 % 997,9 hPa 0,0 l/m² 0 min 0 min 0 W/m² 12,9 km/h (3 Bft) 93,62 %
16.02.2026 21:28 3,6 °C 2,8 °C -0,6 °C 97 % 998,0 hPa 0,0 l/m² 0 min 0 min 0 W/m² 12,9 km/h (3 Bft) 97,37 %
16.02.2026 21:30 3,6 °C 2,8 °C -0,6 °C 97 % 998,0 hPa 0,0 l/m² 0 min 0 min 0 W/m² 12,9 km/h (3 Bft) 97,87 %
16.02.2026 21:32 3,6 °C 2,8 °C -0,6 °C 97 % 998,0 hPa 0,0 l/m² 0 min 0 min 0 W/m² 12,9 km/h (3 Bft) 97,87 %
16.02.2026 21:34 3,6 °C 2,8 °C -0,6 °C 97 % 998,0 hPa 0,0 l/m² 0 min 0 min 0 W/m² 12,9 km/h (3 Bft) 97,87 %
16.02.2026 21:36 3,6 °C 2,8 °C -0,6 °C 97 % 998,0 hPa 0,0 l/m² 0 min 0 min 0 W/m² 3,2 km/h (1 Bft) 95,74 %
16.02.2026 21:38 3,6 °C 2,8 °C -0,6 °C 97 % 998,0 hPa 0,0 l/m² 0 min 0 min 0 W/m² 6,4 km/h (2 Bft) 97,83 %
16.02.2026 21:40 3,6 °C 2,8 °C -0,6 °C 97 % 998,1 hPa 0,0 l/m² 0 min 0 min 0 W/m² 12,9 km/h (3 Bft) 100,00 %
16.02.2026 21:42 3,6 °C 2,8 °C -0,6 °C 97 % 998,1 hPa 0,0 l/m² 0 min 0 min 0 W/m² 16,1 km/h (3 Bft) 95,74 %
16.02.2026 21:44 3,6 °C 2,8 °C -0,6 °C 97 % 998,1 hPa 0,0 l/m² 0 min 0 min 0 W/m² 6,4 km/h (2 Bft) 100,00 %
16.02.2026 21:46 3,6 °C 2,8 °C -0,6 °C 97 % 998,2 hPa 0,0 l/m² 0 min 0 min 0 W/m² 3,2 km/h (1 Bft) 97,87 %
16.02.2026 21:48 3,6 °C 2,8 °C -0,6 °C 97 % 998,2 hPa 0,0 l/m² 0 min 0 min 0 W/m² 12,9 km/h (3 Bft) 100,00 %
16.02.2026 21:50 3,6 °C 2,8 °C -0,6 °C 97 % 998,2 hPa 0,0 l/m² 0 min 0 min 0 W/m² 6,4 km/h (2 Bft) 97,87 %
16.02.2026 21:52 3,5 °C 2,8 °C -0,6 °C 97 % 998,2 hPa 0,0 l/m² 0 min 0 min 0 W/m² 6,4 km/h (2 Bft) 97,87 %
16.02.2026 21:54 3,5 °C 2,8 °C -0,6 °C 97 % 998,3 hPa 0,0 l/m² 0 min 0 min 0 W/m² 6,4 km/h (2 Bft) 97,87 %
16.02.2026 21:56 3,5 °C 2,8 °C -0,6 °C 97 % 998,4 hPa 0,0 l/m² 0 min 0 min 0 W/m² 16,1 km/h (3 Bft) 97,87 %
16.02.2026 21:58 3,5 °C 2,8 °C -0,6 °C 97 % 998,4 hPa 0,0 l/m² 0 min 0 min 0 W/m² 6,4 km/h (2 Bft) 95,74 %
16.02.2026 22:00 3,5 °C 2,8 °C -0,6 °C 97 % 998,3 hPa 0,0 l/m² 0 min 0 min 0 W/m² 6,4 km/h (2 Bft) 97,87 %
16.02.2026 22:02 3,5 °C 2,8 °C -0,6 °C 97 % 998,3 hPa 0,0 l/m² 0 min 0 min 0 W/m² 6,4 km/h (2 Bft) 97,83 %
16.02.2026 22:04 3,5 °C 2,8 °C -0,6 °C 97 % 998,3 hPa 0,0 l/m² 0 min 0 min 0 W/m² 6,4 km/h (2 Bft) 95,74 %
16.02.2026 22:06 3,4 °C 2,8 °C -0,6 °C 97 % 998,4 hPa 0,0 l/m² 0 min 0 min 0 W/m² 16,1 km/h (3 Bft) 97,87 %
16.02.2026 22:08 3,5 °C 2,8 °C -0,6 °C 97 % 998,5 hPa 0,0 l/m² 0 min 0 min 0 W/m² 6,4 km/h (2 Bft) 95,83 %
16.02.2026 22:10 3,4 °C 2,8 °C -0,6 °C 97 % 998,5 hPa 0,0 l/m² 0 min 0 min 0 W/m² 12,9 km/h (3 Bft) 97,87 %
16.02.2026 22:12 3,4 °C 2,8 °C -0,6 °C 97 % 998,5 hPa 0,0 l/m² 0 min 0 min 0 W/m² 12,9 km/h (3 Bft) 97,87 %
16.02.2026 22:14 3,4 °C 2,8 °C -0,6 °C 97 % 998,6 hPa 0,0 l/m² 0 min 0 min 0 W/m² 6,4 km/h (2 Bft) 97,87 %
16.02.2026 22:16 3,4 °C 2,8 °C -0,6 °C 97 % 998,7 hPa 0,0 l/m² 0 min 0 min 0 W/m² 6,4 km/h (2 Bft) 97,87 %
16.02.2026 22:18 3,4 °C 2,8 °C -0,6 °C 97 % 998,8 hPa 0,0 l/m² 0 min 0 min 0 W/m² 9,7 km/h (2 Bft) 97,87 %
16.02.2026 22:20 3,4 °C 2,8 °C -0,6 °C 97 % 998,7 hPa 0,0 l/m² 0 min 0 min 0 W/m² 6,4 km/h (2 Bft) 100,00 %
16.02.2026 22:22 3,4 °C 2,8 °C -0,6 °C 97 % 998,7 hPa 0,0 l/m² 0 min 0 min 0 W/m² 12,9 km/h (3 Bft) 97,83 %
16.02.2026 22:24 3,4 °C 2,8 °C -0,6 °C 97 % 998,8 hPa 0,0 l/m² 0 min 0 min 0 W/m² 12,9 km/h (3 Bft) 97,87 %
16.02.2026 22:26 3,4 °C 2,8 °C -0,6 °C 97 % 998,8 hPa 0,0 l/m² 0 min 0 min 0 W/m² 6,4 km/h (2 Bft) 100,00 %
16.02.2026 22:28 3,4 °C 2,8 °C -0,6 °C 97 % 998,8 hPa 0,0 l/m² 0 min 0 min 0 W/m² 9,7 km/h (2 Bft) 97,87 %
16.02.2026 22:30 3,4 °C 2,8 °C -0,6 °C 97 % 998,8 hPa 0,0 l/m² 0 min 0 min 0 W/m² 9,7 km/h (2 Bft) 100,00 %
16.02.2026 22:32 3,4 °C 2,8 °C -0,6 °C 97 % 998,8 hPa 0,0 l/m² 0 min 0 min 0 W/m² 6,4 km/h (2 Bft) 100,00 %
16.02.2026 22:34 3,4 °C 2,8 °C -0,6 °C 97 % 999,0 hPa 0,0 l/m² 0 min 0 min 0 W/m² 6,4 km/h (2 Bft) 95,74 %
16.02.2026 22:36 3,4 °C 2,8 °C -0,6 °C 97 % 999,0 hPa 0,0 l/m² 0 min 0 min 0 W/m² 9,7 km/h (2 Bft) 100,00 %
16.02.2026 22:38 3,4 °C 2,8 °C -0,6 °C 97 % 999,0 hPa 0,0 l/m² 0 min 0 min 0 W/m² 6,4 km/h (2 Bft) 100,00 %
16.02.2026 22:40 3,4 °C 2,8 °C -0,6 °C 97 % 999,0 hPa 0,0 l/m² 0 min 0 min 0 W/m² 6,4 km/h (2 Bft) 100,00 %
16.02.2026 22:42 3,4 °C 2,8 °C -0,6 °C 97 % 999,0 hPa 0,0 l/m² 0 min 0 min 0 W/m² 3,2 km/h (1 Bft) 100,00 %
16.02.2026 22:44 3,4 °C 2,8 °C -0,6 °C 97 % 999,1 hPa 0,0 l/m² 0 min 0 min 0 W/m² 6,4 km/h (2 Bft) 97,87 %
16.02.2026 22:46 3,4 °C 2,8 °C -0,6 °C 97 % 999,1 hPa 0,0 l/m² 0 min 0 min 0 W/m² 6,4 km/h (2 Bft) 100,00 %
16.02.2026 22:48 3,4 °C 2,8 °C -0,6 °C 97 % 999,2 hPa 0,0 l/m² 0 min 0 min 0 W/m² 6,4 km/h (2 Bft) 100,00 %
16.02.2026 22:50 3,4 °C 2,8 °C -0,6 °C 97 % 999,2 hPa 0,0 l/m² 0 min 0 min 0 W/m² 16,1 km/h (3 Bft) 97,87 %
16.02.2026 22:52 3,4 °C 2,8 °C -0,6 °C 97 % 999,2 hPa 0,0 l/m² 0 min 0 min 0 W/m² 6,4 km/h (2 Bft) 100,00 %
16.02.2026 22:54 3,4 °C 2,8 °C -0,6 °C 97 % 999,3 hPa 0,2 l/m² 0 min 0 min 0 W/m² 6,4 km/h (2 Bft) 100,00 %
16.02.2026 22:56 3,4 °C 2,8 °C -0,6 °C 97 % 999,4 hPa 0,0 l/m² 0 min 0 min 0 W/m² 6,4 km/h (2 Bft) 100,00 %
16.02.2026 22:58 3,4 °C 2,8 °C -0,6 °C 97 % 999,3 hPa 0,0 l/m² 0 min 0 min 0 W/m² 12,9 km/h (3 Bft) 100,00 %
16.02.2026 23:00 3,4 °C 2,8 °C -0,6 °C 97 % 999,3 hPa 0,0 l/m² 0 min 0 min 0 W/m² 3,2 km/h (1 Bft) 95,74 %
16.02.2026 23:02 3,4 °C 2,8 °C -0,6 °C 97 % 999,4 hPa 0,0 l/m² 0 min 0 min 0 W/m² 9,7 km/h (2 Bft) 95,74 %
16.02.2026 23:04 3,4 °C 2,8 °C -0,6 °C 97 % 999,3 hPa 0,0 l/m² 0 min 0 min 0 W/m² 9,7 km/h (2 Bft) 100,00 %
16.02.2026 23:06 3,4 °C 2,8 °C -0,6 °C 97 % 999,4 hPa 0,2 l/m² 0 min 0 min 0 W/m² 12,9 km/h (3 Bft) 97,87 %
16.02.2026 23:08 3,4 °C 2,8 °C -0,6 °C 97 % 999,4 hPa 0,0 l/m² 0 min 0 min 0 W/m² 6,4 km/h (2 Bft) 97,87 %
16.02.2026 23:10 3,4 °C 2,8 °C -0,6 °C 97 % 999,4 hPa 0,0 l/m² 0 min 0 min 0 W/m² 12,9 km/h (3 Bft) 97,87 %
16.02.2026 23:12 3,4 °C 2,8 °C -0,6 °C 97 % 999,4 hPa 0,0 l/m² 0 min 0 min 0 W/m² 12,9 km/h (3 Bft) 97,87 %
16.02.2026 23:14 3,4 °C 2,8 °C -0,6 °C 97 % 999,5 hPa 0,0 l/m² 0 min 0 min 0 W/m² 6,4 km/h (2 Bft) 97,87 %
16.02.2026 23:16 3,4 °C 2,8 °C -0,6 °C 97 % 999,5 hPa 0,0 l/m² 0 min 0 min 0 W/m² 6,4 km/h (2 Bft) 93,62 %
16.02.2026 23:18 3,4 °C 2,8 °C -0,6 °C 97 % 999,6 hPa 0,0 l/m² 0 min 0 min 0 W/m² 12,9 km/h (3 Bft) 95,74 %
16.02.2026 23:20 3,4 °C 2,8 °C -0,6 °C 97 % 999,5 hPa 0,0 l/m² 0 min 0 min 0 W/m² 6,4 km/h (2 Bft) 97,87 %
16.02.2026 23:22 3,4 °C 2,8 °C -0,6 °C 97 % 999,6 hPa 0,0 l/m² 0 min 0 min 0 W/m² 9,7 km/h (2 Bft) 93,62 %
16.02.2026 23:24 3,4 °C 2,8 °C -0,6 °C 97 % 999,6 hPa 0,0 l/m² 0 min 0 min 0 W/m² 16,1 km/h (3 Bft) 97,87 %
16.02.2026 23:26 3,4 °C 2,8 °C -0,6 °C 97 % 999,6 hPa 0,0 l/m² 0 min 0 min 0 W/m² 12,9 km/h (3 Bft) 97,87 %
16.02.2026 23:28 3,4 °C 2,8 °C -0,6 °C 97 % 999,6 hPa 0,0 l/m² 0 min 0 min 0 W/m² 6,4 km/h (2 Bft) 97,87 %
16.02.2026 23:30 3,4 °C 2,8 °C -0,6 °C 97 % 999,7 hPa 0,0 l/m² 0 min 0 min 0 W/m² 12,9 km/h (3 Bft) 95,74 %
16.02.2026 23:32 3,4 °C 2,8 °C -0,6 °C 97 % 999,7 hPa 0,0 l/m² 0 min 0 min 0 W/m² 12,9 km/h (3 Bft) 97,83 %
16.02.2026 23:34 3,4 °C 2,8 °C -0,6 °C 97 % 999,7 hPa 0,0 l/m² 0 min 0 min 0 W/m² 3,2 km/h (1 Bft) 97,87 %
16.02.2026 23:36 3,4 °C 2,8 °C -0,6 °C 97 % 999,7 hPa 0,0 l/m² 0 min 0 min 0 W/m² 9,7 km/h (2 Bft) 91,49 %
16.02.2026 23:38 3,4 °C 2,8 °C -0,6 °C 97 % 999,8 hPa 0,0 l/m² 0 min 0 min 0 W/m² 12,9 km/h (3 Bft) 95,74 %
16.02.2026 23:40 3,4 °C 2,8 °C -0,6 °C 97 % 999,8 hPa 0,0 l/m² 0 min 0 min 0 W/m² 12,9 km/h (3 Bft) 95,74 %
16.02.2026 23:42 3,4 °C 2,8 °C -0,6 °C 97 % 999,9 hPa 0,0 l/m² 0 min 0 min 0 W/m² 12,9 km/h (3 Bft) 95,74 %
16.02.2026 23:44 3,4 °C 2,8 °C -0,6 °C 97 % 999,9 hPa 0,0 l/m² 0 min 0 min 0 W/m² 6,4 km/h (2 Bft) 97,87 %
16.02.2026 23:46 3,4 °C 2,8 °C -0,6 °C 97 % 999,9 hPa 0,0 l/m² 0 min 0 min 0 W/m² 12,9 km/h (3 Bft) 94,44 %
16.02.2026 23:48 3,4 °C 2,8 °C -0,6 °C 97 % 999,9 hPa 0,0 l/m² 0 min 0 min 0 W/m² 12,9 km/h (3 Bft) 95,74 %
16.02.2026 23:50 3,4 °C 2,8 °C -0,6 °C 97 % 999,9 hPa 0,0 l/m² 0 min 0 min 0 W/m² 6,4 km/h (2 Bft) 96,36 %
16.02.2026 23:52 3,4 °C 2,8 °C -0,6 °C 97 % 1000,0 hPa 0,0 l/m² 0 min 0 min 0 W/m² 6,4 km/h (2 Bft) 94,00 %
16.02.2026 23:54 3,4 °C 2,8 °C -0,6 °C 97 % 1000,0 hPa 0,0 l/m² 0 min 0 min 0 W/m² 12,9 km/h (3 Bft) 93,48 %
16.02.2026 23:56 3,4 °C 2,8 °C -0,6 °C 97 % 1000,0 hPa 0,0 l/m² 0 min 0 min 0 W/m² 9,7 km/h (2 Bft) 91,49 %
16.02.2026 23:58 3,4 °C 2,8 °C -0,6 °C 97 % 1000,1 hPa 0,0 l/m² 0 min 0 min 0 W/m² 12,9 km/h (3 Bft) 95,74 %
_ Min-Zeit 00:52 00:48 00:56 12:42 03:40 - - - - 04:06 07:54
Minimum _ 0,4 °C -0,6 °C -4,4 °C 88 % 994,3 hPa - - - - 0,0 km/h (0 Bft) 36,36 %
_ Max-Zeit 11:58 11:06 11:50 04:30 23:58 00:12 10:48 04:05 11:06 15:50 00:08
Maximum _ 7,7 °C 14,4 °C 4,4 °C 99 % 1000,1 hPa 0,2 l/m² 2 min 5 min 474 W/m² 35,4 km/h
N-NO (5 Bft)
100,00 %
Durchschnitt _ 4,0 °C 3,7 °C -0,2 °C 97 % 995,8 hPa #15,4 l/m² #1:12 h #2:20 h 101 W/m² 11,0 km/h (2 Bft) 96,88 %
© 2026 W. Hausmann